<gpx creator="Cyclotour.ca" version="1.1" xmlns:gpsies="http://www.gpsies.com/GPX/1/0" xmlns:xsi="http://www.w3.org/2001/XMLSchema-instance" xmlns="http://www.topografix.com/GPX/1/1" xsi:schemaLocation="http://www.topografix.com/GPX/1/1 http://www.topografix.com/GPX/1/1/gpx.xsd http://www.gpsies.com/GPX/1/0 http://www.gpsies.com/gpsies.xsd">
<trk>
<name>MCC Ste-Thecle  74 et 86 km</name>
<trkseg>
<trkpt lat="46.626110000" lon="-72.651200000">
<ele>0</ele>
<time>2026-09-04T07:21:44Z</time>
</trkpt>
<trkpt lat="46.626020000" lon="-72.651040000">
<ele>0</ele>
<time>2026-09-04T07:21:45Z</time>
</trkpt>
<trkpt lat="46.626020000" lon="-72.651040000">
<ele>0</ele>
<time>2026-09-04T07:21:46Z</time>
</trkpt>
<trkpt lat="46.625120000" lon="-72.649610000">
<ele>0</ele>
<time>2026-09-04T07:21:47Z</time>
</trkpt>
<trkpt lat="46.625120000" lon="-72.649610000">
<ele>0</ele>
<time>2026-09-04T07:21:48Z</time>
</trkpt>
<trkpt lat="46.624660000" lon="-72.648970000">
<ele>0</ele>
<time>2026-09-04T07:21:49Z</time>
</trkpt>
<trkpt lat="46.618440000" lon="-72.639420000">
<ele>0</ele>
<time>2026-09-04T07:21:50Z</time>
</trkpt>
<trkpt lat="46.618340000" lon="-72.639180000">
<ele>0</ele>
<time>2026-09-04T07:21:51Z</time>
</trkpt>
<trkpt lat="46.617230000" lon="-72.637400000">
<ele>0</ele>
<time>2026-09-04T07:21:52Z</time>
</trkpt>
<trkpt lat="46.616720000" lon="-72.636510000">
<ele>0</ele>
<time>2026-09-04T07:21:53Z</time>
</trkpt>
<trkpt lat="46.616150000" lon="-72.635720000">
<ele>0</ele>
<time>2026-09-04T07:21:54Z</time>
</trkpt>
<trkpt lat="46.615760000" lon="-72.635100000">
<ele>0</ele>
<time>2026-09-04T07:21:55Z</time>
</trkpt>
<trkpt lat="46.615760000" lon="-72.635100000">
<ele>0</ele>
<time>2026-09-04T07:21:56Z</time>
</trkpt>
<trkpt lat="46.614750000" lon="-72.633520000">
<ele>0</ele>
<time>2026-09-04T07:21:57Z</time>
</trkpt>
<trkpt lat="46.614750000" lon="-72.633520000">
<ele>0</ele>
<time>2026-09-04T07:21:58Z</time>
</trkpt>
<trkpt lat="46.614210000" lon="-72.632720000">
<ele>0</ele>
<time>2026-09-04T07:21:59Z</time>
</trkpt>
<trkpt lat="46.613150000" lon="-72.631910000">
<ele>0</ele>
<time>2026-09-04T07:22:00Z</time>
</trkpt>
<trkpt lat="46.612730000" lon="-72.631530000">
<ele>0</ele>
<time>2026-09-04T07:22:01Z</time>
</trkpt>
<trkpt lat="46.612730000" lon="-72.631530000">
<ele>0</ele>
<time>2026-09-04T07:22:02Z</time>
</trkpt>
<trkpt lat="46.612560000" lon="-72.631370000">
<ele>0</ele>
<time>2026-09-04T07:22:03Z</time>
</trkpt>
<trkpt lat="46.612900000" lon="-72.630940000">
<ele>0</ele>
<time>2026-09-04T07:22:04Z</time>
</trkpt>
<trkpt lat="46.613280000" lon="-72.630590000">
<ele>0</ele>
<time>2026-09-04T07:22:05Z</time>
</trkpt>
<trkpt lat="46.613850000" lon="-72.630200000">
<ele>0</ele>
<time>2026-09-04T07:22:06Z</time>
</trkpt>
<trkpt lat="46.614450000" lon="-72.629660000">
<ele>0</ele>
<time>2026-09-04T07:22:07Z</time>
</trkpt>
<trkpt lat="46.614660000" lon="-72.629430000">
<ele>0</ele>
<time>2026-09-04T07:22:08Z</time>
</trkpt>
<trkpt lat="46.615510000" lon="-72.628420000">
<ele>0</ele>
<time>2026-09-04T07:22:09Z</time>
</trkpt>
<trkpt lat="46.615510000" lon="-72.628420000">
<ele>0</ele>
<time>2026-09-04T07:22:10Z</time>
</trkpt>
<trkpt lat="46.618370000" lon="-72.625030000">
<ele>0</ele>
<time>2026-09-04T07:22:11Z</time>
</trkpt>
<trkpt lat="46.619050000" lon="-72.624100000">
<ele>0</ele>
<time>2026-09-04T07:22:12Z</time>
</trkpt>
<trkpt lat="46.619430000" lon="-72.623690000">
<ele>0</ele>
<time>2026-09-04T07:22:13Z</time>
</trkpt>
<trkpt lat="46.620190000" lon="-72.623000000">
<ele>0</ele>
<time>2026-09-04T07:22:14Z</time>
</trkpt>
<trkpt lat="46.621220000" lon="-72.622190000">
<ele>0</ele>
<time>2026-09-04T07:22:15Z</time>
</trkpt>
<trkpt lat="46.621450000" lon="-72.622050000">
<ele>0</ele>
<time>2026-09-04T07:22:16Z</time>
</trkpt>
<trkpt lat="46.621720000" lon="-72.621970000">
<ele>0</ele>
<time>2026-09-04T07:22:17Z</time>
</trkpt>
<trkpt lat="46.622000000" lon="-72.621970000">
<ele>0</ele>
<time>2026-09-04T07:22:18Z</time>
</trkpt>
<trkpt lat="46.622260000" lon="-72.622010000">
<ele>0</ele>
<time>2026-09-04T07:22:19Z</time>
</trkpt>
<trkpt lat="46.622450000" lon="-72.622010000">
<ele>0</ele>
<time>2026-09-04T07:22:20Z</time>
</trkpt>
<trkpt lat="46.622630000" lon="-72.621950000">
<ele>0</ele>
<time>2026-09-04T07:22:21Z</time>
</trkpt>
<trkpt lat="46.623040000" lon="-72.621830000">
<ele>0</ele>
<time>2026-09-04T07:22:22Z</time>
</trkpt>
<trkpt lat="46.623450000" lon="-72.621670000">
<ele>0</ele>
<time>2026-09-04T07:22:23Z</time>
</trkpt>
<trkpt lat="46.623930000" lon="-72.621510000">
<ele>0</ele>
<time>2026-09-04T07:22:24Z</time>
</trkpt>
<trkpt lat="46.624210000" lon="-72.621320000">
<ele>0</ele>
<time>2026-09-04T07:22:25Z</time>
</trkpt>
<trkpt lat="46.624520000" lon="-72.621050000">
<ele>0</ele>
<time>2026-09-04T07:22:26Z</time>
</trkpt>
<trkpt lat="46.624850000" lon="-72.620700000">
<ele>0</ele>
<time>2026-09-04T07:22:27Z</time>
</trkpt>
<trkpt lat="46.626180000" lon="-72.619020000">
<ele>0</ele>
<time>2026-09-04T07:22:28Z</time>
</trkpt>
<trkpt lat="46.626470000" lon="-72.618700000">
<ele>0</ele>
<time>2026-09-04T07:22:29Z</time>
</trkpt>
<trkpt lat="46.626610000" lon="-72.618610000">
<ele>0</ele>
<time>2026-09-04T07:22:30Z</time>
</trkpt>
<trkpt lat="46.626970000" lon="-72.618460000">
<ele>0</ele>
<time>2026-09-04T07:22:31Z</time>
</trkpt>
<trkpt lat="46.627150000" lon="-72.618420000">
<ele>0</ele>
<time>2026-09-04T07:22:32Z</time>
</trkpt>
<trkpt lat="46.627440000" lon="-72.618440000">
<ele>0</ele>
<time>2026-09-04T07:22:33Z</time>
</trkpt>
<trkpt lat="46.628090000" lon="-72.618920000">
<ele>0</ele>
<time>2026-09-04T07:22:34Z</time>
</trkpt>
<trkpt lat="46.628400000" lon="-72.619170000">
<ele>0</ele>
<time>2026-09-04T07:22:35Z</time>
</trkpt>
<trkpt lat="46.628770000" lon="-72.619560000">
<ele>0</ele>
<time>2026-09-04T07:22:36Z</time>
</trkpt>
<trkpt lat="46.629090000" lon="-72.619970000">
<ele>0</ele>
<time>2026-09-04T07:22:37Z</time>
</trkpt>
<trkpt lat="46.630050000" lon="-72.621290000">
<ele>0</ele>
<time>2026-09-04T07:22:38Z</time>
</trkpt>
<trkpt lat="46.630330000" lon="-72.621610000">
<ele>0</ele>
<time>2026-09-04T07:22:39Z</time>
</trkpt>
<trkpt lat="46.630720000" lon="-72.621990000">
<ele>0</ele>
<time>2026-09-04T07:22:40Z</time>
</trkpt>
<trkpt lat="46.632030000" lon="-72.623340000">
<ele>0</ele>
<time>2026-09-04T07:22:41Z</time>
</trkpt>
<trkpt lat="46.632660000" lon="-72.624030000">
<ele>0</ele>
<time>2026-09-04T07:22:42Z</time>
</trkpt>
<trkpt lat="46.632660000" lon="-72.624030000">
<ele>0</ele>
<time>2026-09-04T07:22:43Z</time>
</trkpt>
<trkpt lat="46.633360000" lon="-72.624780000">
<ele>0</ele>
<time>2026-09-04T07:22:44Z</time>
</trkpt>
<trkpt lat="46.633920000" lon="-72.624200000">
<ele>0</ele>
<time>2026-09-04T07:22:45Z</time>
</trkpt>
<trkpt lat="46.634350000" lon="-72.623680000">
<ele>0</ele>
<time>2026-09-04T07:22:46Z</time>
</trkpt>
<trkpt lat="46.634840000" lon="-72.622880000">
<ele>0</ele>
<time>2026-09-04T07:22:47Z</time>
</trkpt>
<trkpt lat="46.634840000" lon="-72.622880000">
<ele>0</ele>
<time>2026-09-04T07:22:48Z</time>
</trkpt>
<trkpt lat="46.635590000" lon="-72.621700000">
<ele>0</ele>
<time>2026-09-04T07:22:49Z</time>
</trkpt>
<trkpt lat="46.636910000" lon="-72.619830000">
<ele>0</ele>
<time>2026-09-04T07:22:50Z</time>
</trkpt>
<trkpt lat="46.637750000" lon="-72.618680000">
<ele>0</ele>
<time>2026-09-04T07:22:51Z</time>
</trkpt>
<trkpt lat="46.640470000" lon="-72.614880000">
<ele>0</ele>
<time>2026-09-04T07:22:52Z</time>
</trkpt>
<trkpt lat="46.641160000" lon="-72.613960000">
<ele>0</ele>
<time>2026-09-04T07:22:53Z</time>
</trkpt>
<trkpt lat="46.641650000" lon="-72.613220000">
<ele>0</ele>
<time>2026-09-04T07:22:54Z</time>
</trkpt>
<trkpt lat="46.642460000" lon="-72.612130000">
<ele>0</ele>
<time>2026-09-04T07:22:55Z</time>
</trkpt>
<trkpt lat="46.642680000" lon="-72.611750000">
<ele>0</ele>
<time>2026-09-04T07:22:56Z</time>
</trkpt>
<trkpt lat="46.642770000" lon="-72.611460000">
<ele>0</ele>
<time>2026-09-04T07:22:57Z</time>
</trkpt>
<trkpt lat="46.642820000" lon="-72.610950000">
<ele>0</ele>
<time>2026-09-04T07:22:58Z</time>
</trkpt>
<trkpt lat="46.642830000" lon="-72.610680000">
<ele>0</ele>
<time>2026-09-04T07:22:59Z</time>
</trkpt>
<trkpt lat="46.642750000" lon="-72.610180000">
<ele>0</ele>
<time>2026-09-04T07:23:00Z</time>
</trkpt>
<trkpt lat="46.642660000" lon="-72.609900000">
<ele>0</ele>
<time>2026-09-04T07:23:01Z</time>
</trkpt>
<trkpt lat="46.642560000" lon="-72.609660000">
<ele>0</ele>
<time>2026-09-04T07:23:02Z</time>
</trkpt>
<trkpt lat="46.642180000" lon="-72.609090000">
<ele>0</ele>
<time>2026-09-04T07:23:03Z</time>
</trkpt>
<trkpt lat="46.641750000" lon="-72.608230000">
<ele>0</ele>
<time>2026-09-04T07:23:04Z</time>
</trkpt>
<trkpt lat="46.641660000" lon="-72.608010000">
<ele>0</ele>
<time>2026-09-04T07:23:05Z</time>
</trkpt>
<trkpt lat="46.641640000" lon="-72.607880000">
<ele>0</ele>
<time>2026-09-04T07:23:06Z</time>
</trkpt>
<trkpt lat="46.641630000" lon="-72.607670000">
<ele>0</ele>
<time>2026-09-04T07:23:07Z</time>
</trkpt>
<trkpt lat="46.641650000" lon="-72.607410000">
<ele>0</ele>
<time>2026-09-04T07:23:08Z</time>
</trkpt>
<trkpt lat="46.641820000" lon="-72.606880000">
<ele>0</ele>
<time>2026-09-04T07:23:09Z</time>
</trkpt>
<trkpt lat="46.642000000" lon="-72.606390000">
<ele>0</ele>
<time>2026-09-04T07:23:10Z</time>
</trkpt>
<trkpt lat="46.643040000" lon="-72.604270000">
<ele>0</ele>
<time>2026-09-04T07:23:11Z</time>
</trkpt>
<trkpt lat="46.643580000" lon="-72.603240000">
<ele>0</ele>
<time>2026-09-04T07:23:12Z</time>
</trkpt>
<trkpt lat="46.643580000" lon="-72.603240000">
<ele>0</ele>
<time>2026-09-04T07:23:13Z</time>
</trkpt>
<trkpt lat="46.643890000" lon="-72.602640000">
<ele>0</ele>
<time>2026-09-04T07:23:14Z</time>
</trkpt>
<trkpt lat="46.643950000" lon="-72.602390000">
<ele>0</ele>
<time>2026-09-04T07:23:15Z</time>
</trkpt>
<trkpt lat="46.643950000" lon="-72.602080000">
<ele>0</ele>
<time>2026-09-04T07:23:16Z</time>
</trkpt>
<trkpt lat="46.643910000" lon="-72.601880000">
<ele>0</ele>
<time>2026-09-04T07:23:17Z</time>
</trkpt>
<trkpt lat="46.643760000" lon="-72.601490000">
<ele>0</ele>
<time>2026-09-04T07:23:18Z</time>
</trkpt>
<trkpt lat="46.643350000" lon="-72.600580000">
<ele>0</ele>
<time>2026-09-04T07:23:19Z</time>
</trkpt>
<trkpt lat="46.642820000" lon="-72.599400000">
<ele>0</ele>
<time>2026-09-04T07:23:20Z</time>
</trkpt>
<trkpt lat="46.642630000" lon="-72.599160000">
<ele>0</ele>
<time>2026-09-04T07:23:21Z</time>
</trkpt>
<trkpt lat="46.642430000" lon="-72.598940000">
<ele>0</ele>
<time>2026-09-04T07:23:22Z</time>
</trkpt>
<trkpt lat="46.641620000" lon="-72.598520000">
<ele>0</ele>
<time>2026-09-04T07:23:23Z</time>
</trkpt>
<trkpt lat="46.641500000" lon="-72.598480000">
<ele>0</ele>
<time>2026-09-04T07:23:24Z</time>
</trkpt>
<trkpt lat="46.641420000" lon="-72.598440000">
<ele>0</ele>
<time>2026-09-04T07:23:25Z</time>
</trkpt>
<trkpt lat="46.641330000" lon="-72.598420000">
<ele>0</ele>
<time>2026-09-04T07:23:26Z</time>
</trkpt>
<trkpt lat="46.641260000" lon="-72.598430000">
<ele>0</ele>
<time>2026-09-04T07:23:27Z</time>
</trkpt>
<trkpt lat="46.641260000" lon="-72.598430000">
<ele>0</ele>
<time>2026-09-04T07:23:28Z</time>
</trkpt>
<trkpt lat="46.641100000" lon="-72.598440000">
<ele>0</ele>
<time>2026-09-04T07:23:30Z</time>
</trkpt>
<trkpt lat="46.640400000" lon="-72.598600000">
<ele>0</ele>
<time>2026-09-04T07:23:31Z</time>
</trkpt>
<trkpt lat="46.639860000" lon="-72.598700000">
<ele>0</ele>
<time>2026-09-04T07:23:32Z</time>
</trkpt>
<trkpt lat="46.639620000" lon="-72.598710000">
<ele>0</ele>
<time>2026-09-04T07:23:33Z</time>
</trkpt>
<trkpt lat="46.639620000" lon="-72.598710000">
<ele>0</ele>
<time>2026-09-04T07:23:34Z</time>
</trkpt>
<trkpt lat="46.639400000" lon="-72.598700000">
<ele>0</ele>
<time>2026-09-04T07:23:35Z</time>
</trkpt>
<trkpt lat="46.639190000" lon="-72.598680000">
<ele>0</ele>
<time>2026-09-04T07:23:36Z</time>
</trkpt>
<trkpt lat="46.638780000" lon="-72.598540000">
<ele>0</ele>
<time>2026-09-04T07:23:37Z</time>
</trkpt>
<trkpt lat="46.638630000" lon="-72.598490000">
<ele>0</ele>
<time>2026-09-04T07:23:38Z</time>
</trkpt>
<trkpt lat="46.639290000" lon="-72.597530000">
<ele>0</ele>
<time>2026-09-04T07:23:39Z</time>
</trkpt>
<trkpt lat="46.640220000" lon="-72.596130000">
<ele>0</ele>
<time>2026-09-04T07:23:40Z</time>
</trkpt>
<trkpt lat="46.640220000" lon="-72.596130000">
<ele>0</ele>
<time>2026-09-04T07:23:41Z</time>
</trkpt>
<trkpt lat="46.643940000" lon="-72.590560000">
<ele>0</ele>
<time>2026-09-04T07:23:42Z</time>
</trkpt>
<trkpt lat="46.647130000" lon="-72.585950000">
<ele>0</ele>
<time>2026-09-04T07:23:43Z</time>
</trkpt>
<trkpt lat="46.649680000" lon="-72.582320000">
<ele>0</ele>
<time>2026-09-04T07:23:44Z</time>
</trkpt>
<trkpt lat="46.649680000" lon="-72.582320000">
<ele>0</ele>
<time>2026-09-04T07:23:45Z</time>
</trkpt>
<trkpt lat="46.650990000" lon="-72.580440000">
<ele>0</ele>
<time>2026-09-04T07:23:46Z</time>
</trkpt>
<trkpt lat="46.652410000" lon="-72.582330000">
<ele>0</ele>
<time>2026-09-04T07:23:47Z</time>
</trkpt>
<trkpt lat="46.652410000" lon="-72.582330000">
<ele>0</ele>
<time>2026-09-04T07:23:48Z</time>
</trkpt>
<trkpt lat="46.655640000" lon="-72.586640000">
<ele>0</ele>
<time>2026-09-04T07:23:49Z</time>
</trkpt>
<trkpt lat="46.657030000" lon="-72.584710000">
<ele>0</ele>
<time>2026-09-04T07:23:50Z</time>
</trkpt>
<trkpt lat="46.657030000" lon="-72.584710000">
<ele>0</ele>
<time>2026-09-04T07:23:51Z</time>
</trkpt>
<trkpt lat="46.660120000" lon="-72.580410000">
<ele>0</ele>
<time>2026-09-04T07:23:52Z</time>
</trkpt>
<trkpt lat="46.661930000" lon="-72.577750000">
<ele>0</ele>
<time>2026-09-04T07:23:53Z</time>
</trkpt>
<trkpt lat="46.662030000" lon="-72.577530000">
<ele>0</ele>
<time>2026-09-04T07:23:54Z</time>
</trkpt>
<trkpt lat="46.662180000" lon="-72.577260000">
<ele>0</ele>
<time>2026-09-04T07:23:55Z</time>
</trkpt>
<trkpt lat="46.663160000" lon="-72.574520000">
<ele>0</ele>
<time>2026-09-04T07:23:56Z</time>
</trkpt>
<trkpt lat="46.663480000" lon="-72.573880000">
<ele>0</ele>
<time>2026-09-04T07:23:57Z</time>
</trkpt>
<trkpt lat="46.669140000" lon="-72.565630000">
<ele>0</ele>
<time>2026-09-04T07:23:58Z</time>
</trkpt>
<trkpt lat="46.669140000" lon="-72.565630000">
<ele>0</ele>
<time>2026-09-04T07:23:59Z</time>
</trkpt>
<trkpt lat="46.673230000" lon="-72.559660000">
<ele>0</ele>
<time>2026-09-04T07:24:00Z</time>
</trkpt>
<trkpt lat="46.672880000" lon="-72.559260000">
<ele>0</ele>
<time>2026-09-04T07:24:01Z</time>
</trkpt>
<trkpt lat="46.672260000" lon="-72.558590000">
<ele>0</ele>
<time>2026-09-04T07:24:02Z</time>
</trkpt>
<trkpt lat="46.672260000" lon="-72.558590000">
<ele>0</ele>
<time>2026-09-04T07:24:03Z</time>
</trkpt>
<trkpt lat="46.668030000" lon="-72.554040000">
<ele>0</ele>
<time>2026-09-04T07:24:04Z</time>
</trkpt>
<trkpt lat="46.667200000" lon="-72.553170000">
<ele>0</ele>
<time>2026-09-04T07:24:05Z</time>
</trkpt>
<trkpt lat="46.666970000" lon="-72.552880000">
<ele>0</ele>
<time>2026-09-04T07:24:06Z</time>
</trkpt>
<trkpt lat="46.666500000" lon="-72.552190000">
<ele>0</ele>
<time>2026-09-04T07:24:07Z</time>
</trkpt>
<trkpt lat="46.666290000" lon="-72.551810000">
<ele>0</ele>
<time>2026-09-04T07:24:08Z</time>
</trkpt>
<trkpt lat="46.662660000" lon="-72.544090000">
<ele>0</ele>
<time>2026-09-04T07:24:09Z</time>
</trkpt>
<trkpt lat="46.662510000" lon="-72.543670000">
<ele>0</ele>
<time>2026-09-04T07:24:10Z</time>
</trkpt>
<trkpt lat="46.662360000" lon="-72.543160000">
<ele>0</ele>
<time>2026-09-04T07:24:11Z</time>
</trkpt>
<trkpt lat="46.662170000" lon="-72.542400000">
<ele>0</ele>
<time>2026-09-04T07:24:12Z</time>
</trkpt>
<trkpt lat="46.662090000" lon="-72.542020000">
<ele>0</ele>
<time>2026-09-04T07:24:13Z</time>
</trkpt>
<trkpt lat="46.661800000" lon="-72.539920000">
<ele>0</ele>
<time>2026-09-04T07:24:14Z</time>
</trkpt>
<trkpt lat="46.661800000" lon="-72.539920000">
<ele>0</ele>
<time>2026-09-04T07:24:15Z</time>
</trkpt>
<trkpt lat="46.661690000" lon="-72.539130000">
<ele>0</ele>
<time>2026-09-04T07:24:16Z</time>
</trkpt>
<trkpt lat="46.661320000" lon="-72.536660000">
<ele>0</ele>
<time>2026-09-04T07:24:17Z</time>
</trkpt>
<trkpt lat="46.661130000" lon="-72.535180000">
<ele>0</ele>
<time>2026-09-04T07:24:18Z</time>
</trkpt>
<trkpt lat="46.660960000" lon="-72.533990000">
<ele>0</ele>
<time>2026-09-04T07:24:19Z</time>
</trkpt>
<trkpt lat="46.660860000" lon="-72.532940000">
<ele>0</ele>
<time>2026-09-04T07:24:20Z</time>
</trkpt>
<trkpt lat="46.660820000" lon="-72.531350000">
<ele>0</ele>
<time>2026-09-04T07:24:21Z</time>
</trkpt>
<trkpt lat="46.661040000" lon="-72.529500000">
<ele>0</ele>
<time>2026-09-04T07:24:22Z</time>
</trkpt>
<trkpt lat="46.661210000" lon="-72.528480000">
<ele>0</ele>
<time>2026-09-04T07:24:23Z</time>
</trkpt>
<trkpt lat="46.661510000" lon="-72.527200000">
<ele>0</ele>
<time>2026-09-04T07:24:24Z</time>
</trkpt>
<trkpt lat="46.662720000" lon="-72.522230000">
<ele>0</ele>
<time>2026-09-04T07:24:25Z</time>
</trkpt>
<trkpt lat="46.663640000" lon="-72.518680000">
<ele>0</ele>
<time>2026-09-04T07:24:26Z</time>
</trkpt>
<trkpt lat="46.664190000" lon="-72.515990000">
<ele>0</ele>
<time>2026-09-04T07:24:27Z</time>
</trkpt>
<trkpt lat="46.664270000" lon="-72.515590000">
<ele>0</ele>
<time>2026-09-04T07:24:28Z</time>
</trkpt>
<trkpt lat="46.664360000" lon="-72.515340000">
<ele>0</ele>
<time>2026-09-04T07:24:29Z</time>
</trkpt>
<trkpt lat="46.664470000" lon="-72.515040000">
<ele>0</ele>
<time>2026-09-04T07:24:30Z</time>
</trkpt>
<trkpt lat="46.664690000" lon="-72.514540000">
<ele>0</ele>
<time>2026-09-04T07:24:31Z</time>
</trkpt>
<trkpt lat="46.664850000" lon="-72.514260000">
<ele>0</ele>
<time>2026-09-04T07:24:32Z</time>
</trkpt>
<trkpt lat="46.666030000" lon="-72.512710000">
<ele>0</ele>
<time>2026-09-04T07:24:33Z</time>
</trkpt>
<trkpt lat="46.666560000" lon="-72.512000000">
<ele>0</ele>
<time>2026-09-04T07:24:34Z</time>
</trkpt>
<trkpt lat="46.667140000" lon="-72.511340000">
<ele>0</ele>
<time>2026-09-04T07:24:35Z</time>
</trkpt>
<trkpt lat="46.667440000" lon="-72.510900000">
<ele>0</ele>
<time>2026-09-04T07:24:36Z</time>
</trkpt>
<trkpt lat="46.667700000" lon="-72.510280000">
<ele>0</ele>
<time>2026-09-04T07:24:37Z</time>
</trkpt>
<trkpt lat="46.668000000" lon="-72.509230000">
<ele>0</ele>
<time>2026-09-04T07:24:38Z</time>
</trkpt>
<trkpt lat="46.668440000" lon="-72.507860000">
<ele>0</ele>
<time>2026-09-04T07:24:39Z</time>
</trkpt>
<trkpt lat="46.668810000" lon="-72.507120000">
<ele>0</ele>
<time>2026-09-04T07:24:40Z</time>
</trkpt>
<trkpt lat="46.669880000" lon="-72.505150000">
<ele>0</ele>
<time>2026-09-04T07:24:41Z</time>
</trkpt>
<trkpt lat="46.670110000" lon="-72.505440000">
<ele>0</ele>
<time>2026-09-04T07:24:42Z</time>
</trkpt>
<trkpt lat="46.670170000" lon="-72.505530000">
<ele>0</ele>
<time>2026-09-04T07:24:43Z</time>
</trkpt>
<trkpt lat="46.670170000" lon="-72.505530000">
<ele>0</ele>
<time>2026-09-04T07:24:44Z</time>
</trkpt>
<trkpt lat="46.671020000" lon="-72.506730000">
<ele>0</ele>
<time>2026-09-04T07:24:45Z</time>
</trkpt>
<trkpt lat="46.671170000" lon="-72.506860000">
<ele>0</ele>
<time>2026-09-04T07:24:46Z</time>
</trkpt>
<trkpt lat="46.671440000" lon="-72.507050000">
<ele>0</ele>
<time>2026-09-04T07:24:47Z</time>
</trkpt>
<trkpt lat="46.671580000" lon="-72.507100000">
<ele>0</ele>
<time>2026-09-04T07:24:48Z</time>
</trkpt>
<trkpt lat="46.671740000" lon="-72.507110000">
<ele>0</ele>
<time>2026-09-04T07:24:49Z</time>
</trkpt>
<trkpt lat="46.672170000" lon="-72.507020000">
<ele>0</ele>
<time>2026-09-04T07:24:50Z</time>
</trkpt>
<trkpt lat="46.673880000" lon="-72.506540000">
<ele>0</ele>
<time>2026-09-04T07:24:51Z</time>
</trkpt>
<trkpt lat="46.673880000" lon="-72.506540000">
<ele>0</ele>
<time>2026-09-04T07:24:52Z</time>
</trkpt>
<trkpt lat="46.674150000" lon="-72.506470000">
<ele>0</ele>
<time>2026-09-04T07:24:53Z</time>
</trkpt>
<trkpt lat="46.674510000" lon="-72.506410000">
<ele>0</ele>
<time>2026-09-04T07:24:54Z</time>
</trkpt>
<trkpt lat="46.674870000" lon="-72.506420000">
<ele>0</ele>
<time>2026-09-04T07:24:55Z</time>
</trkpt>
<trkpt lat="46.675180000" lon="-72.506520000">
<ele>0</ele>
<time>2026-09-04T07:24:56Z</time>
</trkpt>
<trkpt lat="46.675360000" lon="-72.506610000">
<ele>0</ele>
<time>2026-09-04T07:24:57Z</time>
</trkpt>
<trkpt lat="46.675570000" lon="-72.506760000">
<ele>0</ele>
<time>2026-09-04T07:24:58Z</time>
</trkpt>
<trkpt lat="46.675810000" lon="-72.507000000">
<ele>0</ele>
<time>2026-09-04T07:24:59Z</time>
</trkpt>
<trkpt lat="46.676330000" lon="-72.507690000">
<ele>0</ele>
<time>2026-09-04T07:25:00Z</time>
</trkpt>
<trkpt lat="46.677580000" lon="-72.509440000">
<ele>0</ele>
<time>2026-09-04T07:25:01Z</time>
</trkpt>
<trkpt lat="46.677810000" lon="-72.509760000">
<ele>0</ele>
<time>2026-09-04T07:25:02Z</time>
</trkpt>
<trkpt lat="46.677810000" lon="-72.509760000">
<ele>0</ele>
<time>2026-09-04T07:25:03Z</time>
</trkpt>
<trkpt lat="46.680610000" lon="-72.513670000">
<ele>0</ele>
<time>2026-09-04T07:25:04Z</time>
</trkpt>
<trkpt lat="46.682900000" lon="-72.516870000">
<ele>0</ele>
<time>2026-09-04T07:25:05Z</time>
</trkpt>
<trkpt lat="46.685110000" lon="-72.520000000">
<ele>0</ele>
<time>2026-09-04T07:25:06Z</time>
</trkpt>
<trkpt lat="46.685280000" lon="-72.520310000">
<ele>0</ele>
<time>2026-09-04T07:25:07Z</time>
</trkpt>
<trkpt lat="46.685410000" lon="-72.520630000">
<ele>0</ele>
<time>2026-09-04T07:25:08Z</time>
</trkpt>
<trkpt lat="46.685490000" lon="-72.520900000">
<ele>0</ele>
<time>2026-09-04T07:25:09Z</time>
</trkpt>
<trkpt lat="46.685580000" lon="-72.521360000">
<ele>0</ele>
<time>2026-09-04T07:25:10Z</time>
</trkpt>
<trkpt lat="46.685610000" lon="-72.521700000">
<ele>0</ele>
<time>2026-09-04T07:25:11Z</time>
</trkpt>
<trkpt lat="46.685610000" lon="-72.522100000">
<ele>0</ele>
<time>2026-09-04T07:25:12Z</time>
</trkpt>
<trkpt lat="46.685570000" lon="-72.522530000">
<ele>0</ele>
<time>2026-09-04T07:25:13Z</time>
</trkpt>
<trkpt lat="46.685480000" lon="-72.522910000">
<ele>0</ele>
<time>2026-09-04T07:25:14Z</time>
</trkpt>
<trkpt lat="46.685330000" lon="-72.523370000">
<ele>0</ele>
<time>2026-09-04T07:25:15Z</time>
</trkpt>
<trkpt lat="46.684530000" lon="-72.525590000">
<ele>0</ele>
<time>2026-09-04T07:25:16Z</time>
</trkpt>
<trkpt lat="46.683780000" lon="-72.527680000">
<ele>0</ele>
<time>2026-09-04T07:25:17Z</time>
</trkpt>
<trkpt lat="46.683690000" lon="-72.528070000">
<ele>0</ele>
<time>2026-09-04T07:25:18Z</time>
</trkpt>
<trkpt lat="46.683670000" lon="-72.528390000">
<ele>0</ele>
<time>2026-09-04T07:25:19Z</time>
</trkpt>
<trkpt lat="46.683680000" lon="-72.528750000">
<ele>0</ele>
<time>2026-09-04T07:25:20Z</time>
</trkpt>
<trkpt lat="46.683740000" lon="-72.529100000">
<ele>0</ele>
<time>2026-09-04T07:25:21Z</time>
</trkpt>
<trkpt lat="46.683840000" lon="-72.529420000">
<ele>0</ele>
<time>2026-09-04T07:25:22Z</time>
</trkpt>
<trkpt lat="46.684060000" lon="-72.529880000">
<ele>0</ele>
<time>2026-09-04T07:25:23Z</time>
</trkpt>
<trkpt lat="46.684730000" lon="-72.530450000">
<ele>0</ele>
<time>2026-09-04T07:25:24Z</time>
</trkpt>
<trkpt lat="46.685610000" lon="-72.531130000">
<ele>0</ele>
<time>2026-09-04T07:25:25Z</time>
</trkpt>
<trkpt lat="46.685610000" lon="-72.531130000">
<ele>0</ele>
<time>2026-09-04T07:25:26Z</time>
</trkpt>
<trkpt lat="46.688330000" lon="-72.533200000">
<ele>0</ele>
<time>2026-09-04T07:25:27Z</time>
</trkpt>
<trkpt lat="46.688980000" lon="-72.533700000">
<ele>0</ele>
<time>2026-09-04T07:25:28Z</time>
</trkpt>
<trkpt lat="46.689190000" lon="-72.533020000">
<ele>0</ele>
<time>2026-09-04T07:25:29Z</time>
</trkpt>
<trkpt lat="46.690520000" lon="-72.529250000">
<ele>0</ele>
<time>2026-09-04T07:25:30Z</time>
</trkpt>
<trkpt lat="46.690520000" lon="-72.529250000">
<ele>0</ele>
<time>2026-09-04T07:25:31Z</time>
</trkpt>
<trkpt lat="46.695240000" lon="-72.516020000">
<ele>0</ele>
<time>2026-09-04T07:25:32Z</time>
</trkpt>
<trkpt lat="46.696220000" lon="-72.513250000">
<ele>0</ele>
<time>2026-09-04T07:25:33Z</time>
</trkpt>
<trkpt lat="46.696580000" lon="-72.512440000">
<ele>0</ele>
<time>2026-09-04T07:25:34Z</time>
</trkpt>
<trkpt lat="46.697010000" lon="-72.511740000">
<ele>0</ele>
<time>2026-09-04T07:25:35Z</time>
</trkpt>
<trkpt lat="46.698340000" lon="-72.509930000">
<ele>0</ele>
<time>2026-09-04T07:25:36Z</time>
</trkpt>
<trkpt lat="46.700560000" lon="-72.507010000">
<ele>0</ele>
<time>2026-09-04T07:25:37Z</time>
</trkpt>
<trkpt lat="46.701510000" lon="-72.505880000">
<ele>0</ele>
<time>2026-09-04T07:25:38Z</time>
</trkpt>
<trkpt lat="46.703300000" lon="-72.503970000">
<ele>0</ele>
<time>2026-09-04T07:25:39Z</time>
</trkpt>
<trkpt lat="46.703710000" lon="-72.503500000">
<ele>0</ele>
<time>2026-09-04T07:25:40Z</time>
</trkpt>
<trkpt lat="46.704250000" lon="-72.502980000">
<ele>0</ele>
<time>2026-09-04T07:25:41Z</time>
</trkpt>
<trkpt lat="46.705400000" lon="-72.501780000">
<ele>0</ele>
<time>2026-09-04T07:25:42Z</time>
</trkpt>
<trkpt lat="46.706000000" lon="-72.501090000">
<ele>0</ele>
<time>2026-09-04T07:25:43Z</time>
</trkpt>
<trkpt lat="46.706680000" lon="-72.500420000">
<ele>0</ele>
<time>2026-09-04T07:25:44Z</time>
</trkpt>
<trkpt lat="46.707330000" lon="-72.499690000">
<ele>0</ele>
<time>2026-09-04T07:25:45Z</time>
</trkpt>
<trkpt lat="46.707700000" lon="-72.499370000">
<ele>0</ele>
<time>2026-09-04T07:25:46Z</time>
</trkpt>
<trkpt lat="46.707940000" lon="-72.499180000">
<ele>0</ele>
<time>2026-09-04T07:25:47Z</time>
</trkpt>
<trkpt lat="46.708210000" lon="-72.499030000">
<ele>0</ele>
<time>2026-09-04T07:25:48Z</time>
</trkpt>
<trkpt lat="46.708550000" lon="-72.498890000">
<ele>0</ele>
<time>2026-09-04T07:25:49Z</time>
</trkpt>
<trkpt lat="46.709020000" lon="-72.498800000">
<ele>0</ele>
<time>2026-09-04T07:25:50Z</time>
</trkpt>
<trkpt lat="46.709230000" lon="-72.498770000">
<ele>0</ele>
<time>2026-09-04T07:25:51Z</time>
</trkpt>
<trkpt lat="46.709230000" lon="-72.498770000">
<ele>0</ele>
<time>2026-09-04T07:25:52Z</time>
</trkpt>
<trkpt lat="46.709660000" lon="-72.498790000">
<ele>0</ele>
<time>2026-09-04T07:25:53Z</time>
</trkpt>
<trkpt lat="46.710140000" lon="-72.498850000">
<ele>0</ele>
<time>2026-09-04T07:25:54Z</time>
</trkpt>
<trkpt lat="46.710920000" lon="-72.498880000">
<ele>0</ele>
<time>2026-09-04T07:25:55Z</time>
</trkpt>
<trkpt lat="46.711300000" lon="-72.498900000">
<ele>0</ele>
<time>2026-09-04T07:25:56Z</time>
</trkpt>
<trkpt lat="46.711830000" lon="-72.498880000">
<ele>0</ele>
<time>2026-09-04T07:25:57Z</time>
</trkpt>
<trkpt lat="46.712470000" lon="-72.498790000">
<ele>0</ele>
<time>2026-09-04T07:25:58Z</time>
</trkpt>
<trkpt lat="46.712990000" lon="-72.498680000">
<ele>0</ele>
<time>2026-09-04T07:25:59Z</time>
</trkpt>
<trkpt lat="46.713440000" lon="-72.498540000">
<ele>0</ele>
<time>2026-09-04T07:26:00Z</time>
</trkpt>
<trkpt lat="46.713900000" lon="-72.498350000">
<ele>0</ele>
<time>2026-09-04T07:26:01Z</time>
</trkpt>
<trkpt lat="46.714300000" lon="-72.498140000">
<ele>0</ele>
<time>2026-09-04T07:26:02Z</time>
</trkpt>
<trkpt lat="46.714820000" lon="-72.497820000">
<ele>0</ele>
<time>2026-09-04T07:26:03Z</time>
</trkpt>
<trkpt lat="46.715640000" lon="-72.497180000">
<ele>0</ele>
<time>2026-09-04T07:26:04Z</time>
</trkpt>
<trkpt lat="46.716800000" lon="-72.496320000">
<ele>0</ele>
<time>2026-09-04T07:26:05Z</time>
</trkpt>
<trkpt lat="46.719850000" lon="-72.493990000">
<ele>0</ele>
<time>2026-09-04T07:26:06Z</time>
</trkpt>
<trkpt lat="46.721590000" lon="-72.492660000">
<ele>0</ele>
<time>2026-09-04T07:26:07Z</time>
</trkpt>
<trkpt lat="46.721900000" lon="-72.492370000">
<ele>0</ele>
<time>2026-09-04T07:26:08Z</time>
</trkpt>
<trkpt lat="46.722130000" lon="-72.492110000">
<ele>0</ele>
<time>2026-09-04T07:26:09Z</time>
</trkpt>
<trkpt lat="46.722850000" lon="-72.491140000">
<ele>0</ele>
<time>2026-09-04T07:26:10Z</time>
</trkpt>
<trkpt lat="46.727150000" lon="-72.484860000">
<ele>0</ele>
<time>2026-09-04T07:26:11Z</time>
</trkpt>
<trkpt lat="46.728730000" lon="-72.482600000">
<ele>0</ele>
<time>2026-09-04T07:26:12Z</time>
</trkpt>
<trkpt lat="46.729290000" lon="-72.481720000">
<ele>0</ele>
<time>2026-09-04T07:26:13Z</time>
</trkpt>
<trkpt lat="46.730120000" lon="-72.480530000">
<ele>0</ele>
<time>2026-09-04T07:26:14Z</time>
</trkpt>
<trkpt lat="46.730630000" lon="-72.479630000">
<ele>0</ele>
<time>2026-09-04T07:26:15Z</time>
</trkpt>
<trkpt lat="46.731220000" lon="-72.478300000">
<ele>0</ele>
<time>2026-09-04T07:26:16Z</time>
</trkpt>
<trkpt lat="46.731630000" lon="-72.477130000">
<ele>0</ele>
<time>2026-09-04T07:26:17Z</time>
</trkpt>
<trkpt lat="46.732510000" lon="-72.474320000">
<ele>0</ele>
<time>2026-09-04T07:26:18Z</time>
</trkpt>
<trkpt lat="46.732880000" lon="-72.473460000">
<ele>0</ele>
<time>2026-09-04T07:26:19Z</time>
</trkpt>
<trkpt lat="46.733680000" lon="-72.472330000">
<ele>0</ele>
<time>2026-09-04T07:26:20Z</time>
</trkpt>
<trkpt lat="46.736250000" lon="-72.468380000">
<ele>0</ele>
<time>2026-09-04T07:26:21Z</time>
</trkpt>
<trkpt lat="46.736870000" lon="-72.467450000">
<ele>0</ele>
<time>2026-09-04T07:26:22Z</time>
</trkpt>
<trkpt lat="46.739260000" lon="-72.464100000">
<ele>0</ele>
<time>2026-09-04T07:26:23Z</time>
</trkpt>
<trkpt lat="46.740790000" lon="-72.461790000">
<ele>0</ele>
<time>2026-09-04T07:26:24Z</time>
</trkpt>
<trkpt lat="46.744140000" lon="-72.456750000">
<ele>0</ele>
<time>2026-09-04T07:26:25Z</time>
</trkpt>
<trkpt lat="46.744910000" lon="-72.455630000">
<ele>0</ele>
<time>2026-09-04T07:26:26Z</time>
</trkpt>
<trkpt lat="46.744910000" lon="-72.455630000">
<ele>0</ele>
<time>2026-09-04T07:26:27Z</time>
</trkpt>
<trkpt lat="46.746840000" lon="-72.452750000">
<ele>0</ele>
<time>2026-09-04T07:26:28Z</time>
</trkpt>
<trkpt lat="46.747370000" lon="-72.451920000">
<ele>0</ele>
<time>2026-09-04T07:26:29Z</time>
</trkpt>
<trkpt lat="46.748520000" lon="-72.448480000">
<ele>0</ele>
<time>2026-09-04T07:26:30Z</time>
</trkpt>
<trkpt lat="46.749290000" lon="-72.448970000">
<ele>0</ele>
<time>2026-09-04T07:26:31Z</time>
</trkpt>
<trkpt lat="46.752060000" lon="-72.450240000">
<ele>0</ele>
<time>2026-09-04T07:26:32Z</time>
</trkpt>
<trkpt lat="46.752060000" lon="-72.450240000">
<ele>0</ele>
<time>2026-09-04T07:26:33Z</time>
</trkpt>
<trkpt lat="46.756410000" lon="-72.452220000">
<ele>0</ele>
<time>2026-09-04T07:26:34Z</time>
</trkpt>
<trkpt lat="46.757070000" lon="-72.452490000">
<ele>0</ele>
<time>2026-09-04T07:26:35Z</time>
</trkpt>
<trkpt lat="46.759150000" lon="-72.453430000">
<ele>0</ele>
<time>2026-09-04T07:26:36Z</time>
</trkpt>
<trkpt lat="46.760800000" lon="-72.454190000">
<ele>0</ele>
<time>2026-09-04T07:26:37Z</time>
</trkpt>
<trkpt lat="46.760900000" lon="-72.454250000">
<ele>0</ele>
<time>2026-09-04T07:26:38Z</time>
</trkpt>
<trkpt lat="46.761240000" lon="-72.454560000">
<ele>0</ele>
<time>2026-09-04T07:26:39Z</time>
</trkpt>
<trkpt lat="46.761680000" lon="-72.454970000">
<ele>0</ele>
<time>2026-09-04T07:26:40Z</time>
</trkpt>
<trkpt lat="46.762160000" lon="-72.455610000">
<ele>0</ele>
<time>2026-09-04T07:26:41Z</time>
</trkpt>
<trkpt lat="46.762540000" lon="-72.456460000">
<ele>0</ele>
<time>2026-09-04T07:26:42Z</time>
</trkpt>
<trkpt lat="46.762810000" lon="-72.457350000">
<ele>0</ele>
<time>2026-09-04T07:26:43Z</time>
</trkpt>
<trkpt lat="46.763190000" lon="-72.459000000">
<ele>0</ele>
<time>2026-09-04T07:26:44Z</time>
</trkpt>
<trkpt lat="46.763950000" lon="-72.461850000">
<ele>0</ele>
<time>2026-09-04T07:26:45Z</time>
</trkpt>
<trkpt lat="46.765060000" lon="-72.466660000">
<ele>0</ele>
<time>2026-09-04T07:26:46Z</time>
</trkpt>
<trkpt lat="46.766450000" lon="-72.472280000">
<ele>0</ele>
<time>2026-09-04T07:26:47Z</time>
</trkpt>
<trkpt lat="46.767010000" lon="-72.474350000">
<ele>0</ele>
<time>2026-09-04T07:26:48Z</time>
</trkpt>
<trkpt lat="46.767010000" lon="-72.474350000">
<ele>0</ele>
<time>2026-09-04T07:26:49Z</time>
</trkpt>
<trkpt lat="46.767140000" lon="-72.474700000">
<ele>0</ele>
<time>2026-09-04T07:26:50Z</time>
</trkpt>
<trkpt lat="46.767370000" lon="-72.475150000">
<ele>0</ele>
<time>2026-09-04T07:26:51Z</time>
</trkpt>
<trkpt lat="46.767610000" lon="-72.475550000">
<ele>0</ele>
<time>2026-09-04T07:26:52Z</time>
</trkpt>
<trkpt lat="46.767800000" lon="-72.475820000">
<ele>0</ele>
<time>2026-09-04T07:26:53Z</time>
</trkpt>
<trkpt lat="46.767990000" lon="-72.476040000">
<ele>0</ele>
<time>2026-09-04T07:26:54Z</time>
</trkpt>
<trkpt lat="46.768140000" lon="-72.476180000">
<ele>0</ele>
<time>2026-09-04T07:26:55Z</time>
</trkpt>
<trkpt lat="46.768280000" lon="-72.476320000">
<ele>0</ele>
<time>2026-09-04T07:26:56Z</time>
</trkpt>
<trkpt lat="46.768440000" lon="-72.476420000">
<ele>0</ele>
<time>2026-09-04T07:26:57Z</time>
</trkpt>
<trkpt lat="46.768730000" lon="-72.476600000">
<ele>0</ele>
<time>2026-09-04T07:26:58Z</time>
</trkpt>
<trkpt lat="46.769210000" lon="-72.476800000">
<ele>0</ele>
<time>2026-09-04T07:26:59Z</time>
</trkpt>
<trkpt lat="46.769660000" lon="-72.476890000">
<ele>0</ele>
<time>2026-09-04T07:27:00Z</time>
</trkpt>
<trkpt lat="46.769950000" lon="-72.476900000">
<ele>0</ele>
<time>2026-09-04T07:27:01Z</time>
</trkpt>
<trkpt lat="46.770420000" lon="-72.476820000">
<ele>0</ele>
<time>2026-09-04T07:27:02Z</time>
</trkpt>
<trkpt lat="46.771120000" lon="-72.476510000">
<ele>0</ele>
<time>2026-09-04T07:27:03Z</time>
</trkpt>
<trkpt lat="46.771970000" lon="-72.475860000">
<ele>0</ele>
<time>2026-09-04T07:27:04Z</time>
</trkpt>
<trkpt lat="46.772600000" lon="-72.475430000">
<ele>0</ele>
<time>2026-09-04T07:27:05Z</time>
</trkpt>
<trkpt lat="46.773260000" lon="-72.475070000">
<ele>0</ele>
<time>2026-09-04T07:27:06Z</time>
</trkpt>
<trkpt lat="46.773860000" lon="-72.474890000">
<ele>0</ele>
<time>2026-09-04T07:27:07Z</time>
</trkpt>
<trkpt lat="46.774280000" lon="-72.474860000">
<ele>0</ele>
<time>2026-09-04T07:27:08Z</time>
</trkpt>
<trkpt lat="46.774680000" lon="-72.474940000">
<ele>0</ele>
<time>2026-09-04T07:27:09Z</time>
</trkpt>
<trkpt lat="46.775090000" lon="-72.475080000">
<ele>0</ele>
<time>2026-09-04T07:27:10Z</time>
</trkpt>
<trkpt lat="46.776810000" lon="-72.475990000">
<ele>0</ele>
<time>2026-09-04T07:27:11Z</time>
</trkpt>
<trkpt lat="46.778720000" lon="-72.477000000">
<ele>0</ele>
<time>2026-09-04T07:27:12Z</time>
</trkpt>
<trkpt lat="46.780170000" lon="-72.477730000">
<ele>0</ele>
<time>2026-09-04T07:27:13Z</time>
</trkpt>
<trkpt lat="46.780690000" lon="-72.477870000">
<ele>0</ele>
<time>2026-09-04T07:27:14Z</time>
</trkpt>
<trkpt lat="46.781200000" lon="-72.477870000">
<ele>0</ele>
<time>2026-09-04T07:27:15Z</time>
</trkpt>
<trkpt lat="46.781540000" lon="-72.477810000">
<ele>0</ele>
<time>2026-09-04T07:27:16Z</time>
</trkpt>
<trkpt lat="46.781970000" lon="-72.477640000">
<ele>0</ele>
<time>2026-09-04T07:27:17Z</time>
</trkpt>
<trkpt lat="46.785720000" lon="-72.475410000">
<ele>0</ele>
<time>2026-09-04T07:27:18Z</time>
</trkpt>
<trkpt lat="46.786310000" lon="-72.475060000">
<ele>0</ele>
<time>2026-09-04T07:27:19Z</time>
</trkpt>
<trkpt lat="46.786310000" lon="-72.475060000">
<ele>0</ele>
<time>2026-09-04T07:27:20Z</time>
</trkpt>
<trkpt lat="46.788740000" lon="-72.473600000">
<ele>0</ele>
<time>2026-09-04T07:27:21Z</time>
</trkpt>
<trkpt lat="46.789140000" lon="-72.473450000">
<ele>0</ele>
<time>2026-09-04T07:27:22Z</time>
</trkpt>
<trkpt lat="46.789510000" lon="-72.473380000">
<ele>0</ele>
<time>2026-09-04T07:27:23Z</time>
</trkpt>
<trkpt lat="46.789890000" lon="-72.473380000">
<ele>0</ele>
<time>2026-09-04T07:27:24Z</time>
</trkpt>
<trkpt lat="46.790200000" lon="-72.473340000">
<ele>0</ele>
<time>2026-09-04T07:27:25Z</time>
</trkpt>
<trkpt lat="46.790480000" lon="-72.473380000">
<ele>0</ele>
<time>2026-09-04T07:27:26Z</time>
</trkpt>
<trkpt lat="46.790700000" lon="-72.473440000">
<ele>0</ele>
<time>2026-09-04T07:27:27Z</time>
</trkpt>
<trkpt lat="46.790980000" lon="-72.473560000">
<ele>0</ele>
<time>2026-09-04T07:27:28Z</time>
</trkpt>
<trkpt lat="46.791720000" lon="-72.474020000">
<ele>0</ele>
<time>2026-09-04T07:27:29Z</time>
</trkpt>
<trkpt lat="46.792040000" lon="-72.474300000">
<ele>0</ele>
<time>2026-09-04T07:27:30Z</time>
</trkpt>
<trkpt lat="46.792410000" lon="-72.474690000">
<ele>0</ele>
<time>2026-09-04T07:27:31Z</time>
</trkpt>
<trkpt lat="46.792770000" lon="-72.475180000">
<ele>0</ele>
<time>2026-09-04T07:27:32Z</time>
</trkpt>
<trkpt lat="46.793050000" lon="-72.475670000">
<ele>0</ele>
<time>2026-09-04T07:27:33Z</time>
</trkpt>
<trkpt lat="46.793300000" lon="-72.476250000">
<ele>0</ele>
<time>2026-09-04T07:27:34Z</time>
</trkpt>
<trkpt lat="46.793900000" lon="-72.477880000">
<ele>0</ele>
<time>2026-09-04T07:27:35Z</time>
</trkpt>
<trkpt lat="46.794730000" lon="-72.480010000">
<ele>0</ele>
<time>2026-09-04T07:27:36Z</time>
</trkpt>
<trkpt lat="46.794880000" lon="-72.480470000">
<ele>0</ele>
<time>2026-09-04T07:27:37Z</time>
</trkpt>
<trkpt lat="46.795080000" lon="-72.481260000">
<ele>0</ele>
<time>2026-09-04T07:27:38Z</time>
</trkpt>
<trkpt lat="46.795190000" lon="-72.482020000">
<ele>0</ele>
<time>2026-09-04T07:27:39Z</time>
</trkpt>
<trkpt lat="46.795260000" lon="-72.482400000">
<ele>0</ele>
<time>2026-09-04T07:27:40Z</time>
</trkpt>
<trkpt lat="46.795340000" lon="-72.482710000">
<ele>0</ele>
<time>2026-09-04T07:27:41Z</time>
</trkpt>
<trkpt lat="46.795530000" lon="-72.483160000">
<ele>0</ele>
<time>2026-09-04T07:27:42Z</time>
</trkpt>
<trkpt lat="46.795780000" lon="-72.483550000">
<ele>0</ele>
<time>2026-09-04T07:27:43Z</time>
</trkpt>
<trkpt lat="46.796070000" lon="-72.483880000">
<ele>0</ele>
<time>2026-09-04T07:27:44Z</time>
</trkpt>
<trkpt lat="46.796230000" lon="-72.484050000">
<ele>0</ele>
<time>2026-09-04T07:27:45Z</time>
</trkpt>
<trkpt lat="46.796410000" lon="-72.484180000">
<ele>0</ele>
<time>2026-09-04T07:27:46Z</time>
</trkpt>
<trkpt lat="46.797300000" lon="-72.484720000">
<ele>0</ele>
<time>2026-09-04T07:27:47Z</time>
</trkpt>
<trkpt lat="46.797990000" lon="-72.485070000">
<ele>0</ele>
<time>2026-09-04T07:27:48Z</time>
</trkpt>
<trkpt lat="46.798640000" lon="-72.485470000">
<ele>0</ele>
<time>2026-09-04T07:27:49Z</time>
</trkpt>
<trkpt lat="46.798950000" lon="-72.485730000">
<ele>0</ele>
<time>2026-09-04T07:27:50Z</time>
</trkpt>
<trkpt lat="46.799570000" lon="-72.486350000">
<ele>0</ele>
<time>2026-09-04T07:27:51Z</time>
</trkpt>
<trkpt lat="46.800100000" lon="-72.487040000">
<ele>0</ele>
<time>2026-09-04T07:27:52Z</time>
</trkpt>
<trkpt lat="46.800100000" lon="-72.487040000">
<ele>0</ele>
<time>2026-09-04T07:27:53Z</time>
</trkpt>
<trkpt lat="46.800370000" lon="-72.487420000">
<ele>0</ele>
<time>2026-09-04T07:27:54Z</time>
</trkpt>
<trkpt lat="46.800720000" lon="-72.487980000">
<ele>0</ele>
<time>2026-09-04T07:27:55Z</time>
</trkpt>
<trkpt lat="46.804950000" lon="-72.494130000">
<ele>0</ele>
<time>2026-09-04T07:27:56Z</time>
</trkpt>
<trkpt lat="46.806040000" lon="-72.495440000">
<ele>0</ele>
<time>2026-09-04T07:27:57Z</time>
</trkpt>
<trkpt lat="46.806850000" lon="-72.496480000">
<ele>0</ele>
<time>2026-09-04T07:27:58Z</time>
</trkpt>
<trkpt lat="46.807620000" lon="-72.497540000">
<ele>0</ele>
<time>2026-09-04T07:27:59Z</time>
</trkpt>
<trkpt lat="46.807800000" lon="-72.497900000">
<ele>0</ele>
<time>2026-09-04T07:28:00Z</time>
</trkpt>
<trkpt lat="46.808320000" lon="-72.498610000">
<ele>0</ele>
<time>2026-09-04T07:28:01Z</time>
</trkpt>
<trkpt lat="46.809240000" lon="-72.500100000">
<ele>0</ele>
<time>2026-09-04T07:28:02Z</time>
</trkpt>
<trkpt lat="46.809240000" lon="-72.500100000">
<ele>0</ele>
<time>2026-09-04T07:28:03Z</time>
</trkpt>
<trkpt lat="46.810490000" lon="-72.502220000">
<ele>0</ele>
<time>2026-09-04T07:28:04Z</time>
</trkpt>
<trkpt lat="46.810830000" lon="-72.502750000">
<ele>0</ele>
<time>2026-09-04T07:28:05Z</time>
</trkpt>
<trkpt lat="46.812700000" lon="-72.505590000">
<ele>0</ele>
<time>2026-09-04T07:28:06Z</time>
</trkpt>
<trkpt lat="46.813300000" lon="-72.506650000">
<ele>0</ele>
<time>2026-09-04T07:28:07Z</time>
</trkpt>
<trkpt lat="46.813700000" lon="-72.507440000">
<ele>0</ele>
<time>2026-09-04T07:28:08Z</time>
</trkpt>
<trkpt lat="46.813810000" lon="-72.507400000">
<ele>0</ele>
<time>2026-09-04T07:28:09Z</time>
</trkpt>
<trkpt lat="46.813820000" lon="-72.507390000">
<ele>0</ele>
<time>2026-09-04T07:28:10Z</time>
</trkpt>
<trkpt lat="46.813820000" lon="-72.507390000">
<ele>0</ele>
<time>2026-09-04T07:28:11Z</time>
</trkpt>
<trkpt lat="46.813970000" lon="-72.507280000">
<ele>0</ele>
<time>2026-09-04T07:28:12Z</time>
</trkpt>
<trkpt lat="46.815300000" lon="-72.506210000">
<ele>0</ele>
<time>2026-09-04T07:28:13Z</time>
</trkpt>
<trkpt lat="46.815640000" lon="-72.505910000">
<ele>0</ele>
<time>2026-09-04T07:28:14Z</time>
</trkpt>
<trkpt lat="46.815960000" lon="-72.506110000">
<ele>0</ele>
<time>2026-09-04T07:28:15Z</time>
</trkpt>
<trkpt lat="46.815960000" lon="-72.506110000">
<ele>0</ele>
<time>2026-09-04T07:28:16Z</time>
</trkpt>
<trkpt lat="46.817310000" lon="-72.506970000">
<ele>0</ele>
<time>2026-09-04T07:28:17Z</time>
</trkpt>
<trkpt lat="46.817450000" lon="-72.507080000">
<ele>0</ele>
<time>2026-09-04T07:28:18Z</time>
</trkpt>
<trkpt lat="46.817450000" lon="-72.507080000">
<ele>0</ele>
<time>2026-09-04T07:28:19Z</time>
</trkpt>
<trkpt lat="46.817720000" lon="-72.507290000">
<ele>0</ele>
<time>2026-09-04T07:28:20Z</time>
</trkpt>
<trkpt lat="46.818160000" lon="-72.507840000">
<ele>0</ele>
<time>2026-09-04T07:28:21Z</time>
</trkpt>
<trkpt lat="46.818670000" lon="-72.508560000">
<ele>0</ele>
<time>2026-09-04T07:28:22Z</time>
</trkpt>
<trkpt lat="46.818980000" lon="-72.508840000">
<ele>0</ele>
<time>2026-09-04T07:28:23Z</time>
</trkpt>
<trkpt lat="46.818970000" lon="-72.509400000">
<ele>0</ele>
<time>2026-09-04T07:28:24Z</time>
</trkpt>
<trkpt lat="46.818970000" lon="-72.509400000">
<ele>0</ele>
<time>2026-09-04T07:28:25Z</time>
</trkpt>
<trkpt lat="46.818950000" lon="-72.510030000">
<ele>0</ele>
<time>2026-09-04T07:28:26Z</time>
</trkpt>
<trkpt lat="46.819000000" lon="-72.510250000">
<ele>0</ele>
<time>2026-09-04T07:28:27Z</time>
</trkpt>
<trkpt lat="46.818820000" lon="-72.510290000">
<ele>0</ele>
<time>2026-09-04T07:28:28Z</time>
</trkpt>
<trkpt lat="46.818140000" lon="-72.510580000">
<ele>0</ele>
<time>2026-09-04T07:28:29Z</time>
</trkpt>
<trkpt lat="46.818070000" lon="-72.510620000">
<ele>0</ele>
<time>2026-09-04T07:28:30Z</time>
</trkpt>
<trkpt lat="46.818070000" lon="-72.510620000">
<ele>0</ele>
<time>2026-09-04T07:28:31Z</time>
</trkpt>
<trkpt lat="46.817570000" lon="-72.510950000">
<ele>0</ele>
<time>2026-09-04T07:28:32Z</time>
</trkpt>
<trkpt lat="46.816740000" lon="-72.511730000">
<ele>0</ele>
<time>2026-09-04T07:28:33Z</time>
</trkpt>
<trkpt lat="46.815210000" lon="-72.513250000">
<ele>0</ele>
<time>2026-09-04T07:28:34Z</time>
</trkpt>
<trkpt lat="46.814780000" lon="-72.513920000">
<ele>0</ele>
<time>2026-09-04T07:28:35Z</time>
</trkpt>
<trkpt lat="46.813300000" lon="-72.516800000">
<ele>0</ele>
<time>2026-09-04T07:28:36Z</time>
</trkpt>
<trkpt lat="46.813200000" lon="-72.517260000">
<ele>0</ele>
<time>2026-09-04T07:28:37Z</time>
</trkpt>
<trkpt lat="46.813160000" lon="-72.518010000">
<ele>0</ele>
<time>2026-09-04T07:28:38Z</time>
</trkpt>
<trkpt lat="46.813130000" lon="-72.518150000">
<ele>0</ele>
<time>2026-09-04T07:28:39Z</time>
</trkpt>
<trkpt lat="46.812890000" lon="-72.518770000">
<ele>0</ele>
<time>2026-09-04T07:28:40Z</time>
</trkpt>
<trkpt lat="46.811970000" lon="-72.519250000">
<ele>0</ele>
<time>2026-09-04T07:28:41Z</time>
</trkpt>
<trkpt lat="46.811970000" lon="-72.519250000">
<ele>0</ele>
<time>2026-09-04T07:28:42Z</time>
</trkpt>
<trkpt lat="46.811760000" lon="-72.519360000">
<ele>0</ele>
<time>2026-09-04T07:28:43Z</time>
</trkpt>
<trkpt lat="46.810690000" lon="-72.520190000">
<ele>0</ele>
<time>2026-09-04T07:28:44Z</time>
</trkpt>
<trkpt lat="46.810390000" lon="-72.520380000">
<ele>0</ele>
<time>2026-09-04T07:28:45Z</time>
</trkpt>
<trkpt lat="46.810160000" lon="-72.520480000">
<ele>0</ele>
<time>2026-09-04T07:28:46Z</time>
</trkpt>
<trkpt lat="46.807540000" lon="-72.521020000">
<ele>0</ele>
<time>2026-09-04T07:28:47Z</time>
</trkpt>
<trkpt lat="46.805020000" lon="-72.521610000">
<ele>0</ele>
<time>2026-09-04T07:28:48Z</time>
</trkpt>
<trkpt lat="46.804910000" lon="-72.521660000">
<ele>0</ele>
<time>2026-09-04T07:28:49Z</time>
</trkpt>
<trkpt lat="46.803560000" lon="-72.522820000">
<ele>0</ele>
<time>2026-09-04T07:28:50Z</time>
</trkpt>
<trkpt lat="46.802640000" lon="-72.523980000">
<ele>0</ele>
<time>2026-09-04T07:28:51Z</time>
</trkpt>
<trkpt lat="46.802640000" lon="-72.523980000">
<ele>0</ele>
<time>2026-09-04T07:28:52Z</time>
</trkpt>
<trkpt lat="46.802510000" lon="-72.524150000">
<ele>0</ele>
<time>2026-09-04T07:28:53Z</time>
</trkpt>
<trkpt lat="46.801430000" lon="-72.526340000">
<ele>0</ele>
<time>2026-09-04T07:28:54Z</time>
</trkpt>
<trkpt lat="46.801030000" lon="-72.527120000">
<ele>0</ele>
<time>2026-09-04T07:28:55Z</time>
</trkpt>
<trkpt lat="46.800910000" lon="-72.527260000">
<ele>0</ele>
<time>2026-09-04T07:28:56Z</time>
</trkpt>
<trkpt lat="46.800780000" lon="-72.527350000">
<ele>0</ele>
<time>2026-09-04T07:28:57Z</time>
</trkpt>
<trkpt lat="46.800590000" lon="-72.527370000">
<ele>0</ele>
<time>2026-09-04T07:28:58Z</time>
</trkpt>
<trkpt lat="46.799860000" lon="-72.527330000">
<ele>0</ele>
<time>2026-09-04T07:28:59Z</time>
</trkpt>
<trkpt lat="46.798540000" lon="-72.527210000">
<ele>0</ele>
<time>2026-09-04T07:29:00Z</time>
</trkpt>
<trkpt lat="46.798320000" lon="-72.527220000">
<ele>0</ele>
<time>2026-09-04T07:29:01Z</time>
</trkpt>
<trkpt lat="46.798040000" lon="-72.527320000">
<ele>0</ele>
<time>2026-09-04T07:29:02Z</time>
</trkpt>
<trkpt lat="46.797890000" lon="-72.527460000">
<ele>0</ele>
<time>2026-09-04T07:29:03Z</time>
</trkpt>
<trkpt lat="46.797680000" lon="-72.527960000">
<ele>0</ele>
<time>2026-09-04T07:29:04Z</time>
</trkpt>
<trkpt lat="46.797560000" lon="-72.528160000">
<ele>0</ele>
<time>2026-09-04T07:29:05Z</time>
</trkpt>
<trkpt lat="46.797400000" lon="-72.528350000">
<ele>0</ele>
<time>2026-09-04T07:29:06Z</time>
</trkpt>
<trkpt lat="46.797100000" lon="-72.528610000">
<ele>0</ele>
<time>2026-09-04T07:29:07Z</time>
</trkpt>
<trkpt lat="46.796800000" lon="-72.528760000">
<ele>0</ele>
<time>2026-09-04T07:29:08Z</time>
</trkpt>
<trkpt lat="46.796580000" lon="-72.528820000">
<ele>0</ele>
<time>2026-09-04T07:29:09Z</time>
</trkpt>
<trkpt lat="46.796500000" lon="-72.528820000">
<ele>0</ele>
<time>2026-09-04T07:29:10Z</time>
</trkpt>
<trkpt lat="46.796500000" lon="-72.528820000">
<ele>0</ele>
<time>2026-09-04T07:29:11Z</time>
</trkpt>
<trkpt lat="46.796330000" lon="-72.528770000">
<ele>0</ele>
<time>2026-09-04T07:29:12Z</time>
</trkpt>
<trkpt lat="46.796100000" lon="-72.528610000">
<ele>0</ele>
<time>2026-09-04T07:29:13Z</time>
</trkpt>
<trkpt lat="46.795800000" lon="-72.528200000">
<ele>0</ele>
<time>2026-09-04T07:29:14Z</time>
</trkpt>
<trkpt lat="46.795070000" lon="-72.527330000">
<ele>0</ele>
<time>2026-09-04T07:29:15Z</time>
</trkpt>
<trkpt lat="46.794620000" lon="-72.526900000">
<ele>0</ele>
<time>2026-09-04T07:29:16Z</time>
</trkpt>
<trkpt lat="46.794120000" lon="-72.526410000">
<ele>0</ele>
<time>2026-09-04T07:29:17Z</time>
</trkpt>
<trkpt lat="46.793980000" lon="-72.526330000">
<ele>0</ele>
<time>2026-09-04T07:29:18Z</time>
</trkpt>
<trkpt lat="46.793820000" lon="-72.526310000">
<ele>0</ele>
<time>2026-09-04T07:29:19Z</time>
</trkpt>
<trkpt lat="46.793580000" lon="-72.526350000">
<ele>0</ele>
<time>2026-09-04T07:29:20Z</time>
</trkpt>
<trkpt lat="46.793290000" lon="-72.526520000">
<ele>0</ele>
<time>2026-09-04T07:29:21Z</time>
</trkpt>
<trkpt lat="46.793290000" lon="-72.526520000">
<ele>0</ele>
<time>2026-09-04T07:29:22Z</time>
</trkpt>
<trkpt lat="46.792920000" lon="-72.526790000">
<ele>0</ele>
<time>2026-09-04T07:29:23Z</time>
</trkpt>
<trkpt lat="46.792600000" lon="-72.527080000">
<ele>0</ele>
<time>2026-09-04T07:29:24Z</time>
</trkpt>
<trkpt lat="46.791670000" lon="-72.528200000">
<ele>0</ele>
<time>2026-09-04T07:29:25Z</time>
</trkpt>
<trkpt lat="46.791180000" lon="-72.528590000">
<ele>0</ele>
<time>2026-09-04T07:29:26Z</time>
</trkpt>
<trkpt lat="46.790760000" lon="-72.528810000">
<ele>0</ele>
<time>2026-09-04T07:29:27Z</time>
</trkpt>
<trkpt lat="46.790180000" lon="-72.529010000">
<ele>0</ele>
<time>2026-09-04T07:29:28Z</time>
</trkpt>
<trkpt lat="46.789840000" lon="-72.529230000">
<ele>0</ele>
<time>2026-09-04T07:29:29Z</time>
</trkpt>
<trkpt lat="46.789050000" lon="-72.529890000">
<ele>0</ele>
<time>2026-09-04T07:29:30Z</time>
</trkpt>
<trkpt lat="46.788830000" lon="-72.530030000">
<ele>0</ele>
<time>2026-09-04T07:29:31Z</time>
</trkpt>
<trkpt lat="46.788600000" lon="-72.530170000">
<ele>0</ele>
<time>2026-09-04T07:29:32Z</time>
</trkpt>
<trkpt lat="46.788460000" lon="-72.530180000">
<ele>0</ele>
<time>2026-09-04T07:29:33Z</time>
</trkpt>
<trkpt lat="46.788320000" lon="-72.530120000">
<ele>0</ele>
<time>2026-09-04T07:29:34Z</time>
</trkpt>
<trkpt lat="46.787620000" lon="-72.529260000">
<ele>0</ele>
<time>2026-09-04T07:29:35Z</time>
</trkpt>
<trkpt lat="46.787050000" lon="-72.530060000">
<ele>0</ele>
<time>2026-09-04T07:29:36Z</time>
</trkpt>
<trkpt lat="46.787050000" lon="-72.530060000">
<ele>0</ele>
<time>2026-09-04T07:29:37Z</time>
</trkpt>
<trkpt lat="46.786080000" lon="-72.531440000">
<ele>0</ele>
<time>2026-09-04T07:29:38Z</time>
</trkpt>
<trkpt lat="46.785800000" lon="-72.531790000">
<ele>0</ele>
<time>2026-09-04T07:29:39Z</time>
</trkpt>
<trkpt lat="46.785390000" lon="-72.532160000">
<ele>0</ele>
<time>2026-09-04T07:29:40Z</time>
</trkpt>
<trkpt lat="46.785030000" lon="-72.532380000">
<ele>0</ele>
<time>2026-09-04T07:29:41Z</time>
</trkpt>
<trkpt lat="46.784600000" lon="-72.532540000">
<ele>0</ele>
<time>2026-09-04T07:29:42Z</time>
</trkpt>
<trkpt lat="46.783930000" lon="-72.532720000">
<ele>0</ele>
<time>2026-09-04T07:29:43Z</time>
</trkpt>
<trkpt lat="46.783730000" lon="-72.532790000">
<ele>0</ele>
<time>2026-09-04T07:29:44Z</time>
</trkpt>
<trkpt lat="46.783560000" lon="-72.532910000">
<ele>0</ele>
<time>2026-09-04T07:29:45Z</time>
</trkpt>
<trkpt lat="46.782780000" lon="-72.533530000">
<ele>0</ele>
<time>2026-09-04T07:29:46Z</time>
</trkpt>
<trkpt lat="46.781480000" lon="-72.534570000">
<ele>0</ele>
<time>2026-09-04T07:29:47Z</time>
</trkpt>
<trkpt lat="46.781220000" lon="-72.534870000">
<ele>0</ele>
<time>2026-09-04T07:29:48Z</time>
</trkpt>
<trkpt lat="46.780620000" lon="-72.536790000">
<ele>0</ele>
<time>2026-09-04T07:29:49Z</time>
</trkpt>
<trkpt lat="46.780470000" lon="-72.537810000">
<ele>0</ele>
<time>2026-09-04T07:29:50Z</time>
</trkpt>
<trkpt lat="46.780480000" lon="-72.538230000">
<ele>0</ele>
<time>2026-09-04T07:29:51Z</time>
</trkpt>
<trkpt lat="46.780470000" lon="-72.538290000">
<ele>0</ele>
<time>2026-09-04T07:29:52Z</time>
</trkpt>
<trkpt lat="46.780470000" lon="-72.538290000">
<ele>0</ele>
<time>2026-09-04T07:29:53Z</time>
</trkpt>
<trkpt lat="46.780450000" lon="-72.538560000">
<ele>0</ele>
<time>2026-09-04T07:29:54Z</time>
</trkpt>
<trkpt lat="46.780390000" lon="-72.538850000">
<ele>0</ele>
<time>2026-09-04T07:29:55Z</time>
</trkpt>
<trkpt lat="46.780290000" lon="-72.539120000">
<ele>0</ele>
<time>2026-09-04T07:29:56Z</time>
</trkpt>
<trkpt lat="46.779970000" lon="-72.539650000">
<ele>0</ele>
<time>2026-09-04T07:29:57Z</time>
</trkpt>
<trkpt lat="46.779300000" lon="-72.540450000">
<ele>0</ele>
<time>2026-09-04T07:29:58Z</time>
</trkpt>
<trkpt lat="46.779070000" lon="-72.541000000">
<ele>0</ele>
<time>2026-09-04T07:29:59Z</time>
</trkpt>
<trkpt lat="46.778830000" lon="-72.541740000">
<ele>0</ele>
<time>2026-09-04T07:30:00Z</time>
</trkpt>
<trkpt lat="46.778560000" lon="-72.542600000">
<ele>0</ele>
<time>2026-09-04T07:30:01Z</time>
</trkpt>
<trkpt lat="46.778570000" lon="-72.543020000">
<ele>0</ele>
<time>2026-09-04T07:30:02Z</time>
</trkpt>
<trkpt lat="46.778640000" lon="-72.543570000">
<ele>0</ele>
<time>2026-09-04T07:30:03Z</time>
</trkpt>
<trkpt lat="46.778720000" lon="-72.544010000">
<ele>0</ele>
<time>2026-09-04T07:30:04Z</time>
</trkpt>
<trkpt lat="46.778770000" lon="-72.544100000">
<ele>0</ele>
<time>2026-09-04T07:30:05Z</time>
</trkpt>
<trkpt lat="46.778760000" lon="-72.544240000">
<ele>0</ele>
<time>2026-09-04T07:30:06Z</time>
</trkpt>
<trkpt lat="46.778780000" lon="-72.544410000">
<ele>0</ele>
<time>2026-09-04T07:30:07Z</time>
</trkpt>
<trkpt lat="46.778760000" lon="-72.544730000">
<ele>0</ele>
<time>2026-09-04T07:30:08Z</time>
</trkpt>
<trkpt lat="46.778740000" lon="-72.544880000">
<ele>0</ele>
<time>2026-09-04T07:30:09Z</time>
</trkpt>
<trkpt lat="46.778700000" lon="-72.544980000">
<ele>0</ele>
<time>2026-09-04T07:30:10Z</time>
</trkpt>
<trkpt lat="46.778540000" lon="-72.545290000">
<ele>0</ele>
<time>2026-09-04T07:30:11Z</time>
</trkpt>
<trkpt lat="46.778130000" lon="-72.545770000">
<ele>0</ele>
<time>2026-09-04T07:30:12Z</time>
</trkpt>
<trkpt lat="46.777830000" lon="-72.546060000">
<ele>0</ele>
<time>2026-09-04T07:30:13Z</time>
</trkpt>
<trkpt lat="46.777440000" lon="-72.546580000">
<ele>0</ele>
<time>2026-09-04T07:30:14Z</time>
</trkpt>
<trkpt lat="46.777170000" lon="-72.547180000">
<ele>0</ele>
<time>2026-09-04T07:30:15Z</time>
</trkpt>
<trkpt lat="46.776800000" lon="-72.547740000">
<ele>0</ele>
<time>2026-09-04T07:30:16Z</time>
</trkpt>
<trkpt lat="46.775950000" lon="-72.548800000">
<ele>0</ele>
<time>2026-09-04T07:30:17Z</time>
</trkpt>
<trkpt lat="46.772880000" lon="-72.553710000">
<ele>0</ele>
<time>2026-09-04T07:30:18Z</time>
</trkpt>
<trkpt lat="46.772880000" lon="-72.553710000">
<ele>0</ele>
<time>2026-09-04T07:30:19Z</time>
</trkpt>
<trkpt lat="46.771700000" lon="-72.555490000">
<ele>0</ele>
<time>2026-09-04T07:30:20Z</time>
</trkpt>
<trkpt lat="46.771360000" lon="-72.555050000">
<ele>0</ele>
<time>2026-09-04T07:30:21Z</time>
</trkpt>
<trkpt lat="46.770930000" lon="-72.554420000">
<ele>0</ele>
<time>2026-09-04T07:30:22Z</time>
</trkpt>
<trkpt lat="46.770930000" lon="-72.554420000">
<ele>0</ele>
<time>2026-09-04T07:30:23Z</time>
</trkpt>
<trkpt lat="46.770310000" lon="-72.553530000">
<ele>0</ele>
<time>2026-09-04T07:30:24Z</time>
</trkpt>
<trkpt lat="46.769900000" lon="-72.553670000">
<ele>0</ele>
<time>2026-09-04T07:30:25Z</time>
</trkpt>
<trkpt lat="46.769370000" lon="-72.553750000">
<ele>0</ele>
<time>2026-09-04T07:30:26Z</time>
</trkpt>
<trkpt lat="46.769260000" lon="-72.553770000">
<ele>0</ele>
<time>2026-09-04T07:30:27Z</time>
</trkpt>
<trkpt lat="46.769020000" lon="-72.554030000">
<ele>0</ele>
<time>2026-09-04T07:30:28Z</time>
</trkpt>
<trkpt lat="46.768380000" lon="-72.554900000">
<ele>0</ele>
<time>2026-09-04T07:30:29Z</time>
</trkpt>
<trkpt lat="46.768280000" lon="-72.555050000">
<ele>0</ele>
<time>2026-09-04T07:30:30Z</time>
</trkpt>
<trkpt lat="46.768280000" lon="-72.555050000">
<ele>0</ele>
<time>2026-09-04T07:30:31Z</time>
</trkpt>
<trkpt lat="46.767500000" lon="-72.556200000">
<ele>0</ele>
<time>2026-09-04T07:30:32Z</time>
</trkpt>
<trkpt lat="46.767430000" lon="-72.556250000">
<ele>0</ele>
<time>2026-09-04T07:30:33Z</time>
</trkpt>
<trkpt lat="46.767350000" lon="-72.556280000">
<ele>0</ele>
<time>2026-09-04T07:30:34Z</time>
</trkpt>
<trkpt lat="46.767220000" lon="-72.556260000">
<ele>0</ele>
<time>2026-09-04T07:30:35Z</time>
</trkpt>
<trkpt lat="46.766070000" lon="-72.555740000">
<ele>0</ele>
<time>2026-09-04T07:30:36Z</time>
</trkpt>
<trkpt lat="46.766070000" lon="-72.555740000">
<ele>0</ele>
<time>2026-09-04T07:30:37Z</time>
</trkpt>
<trkpt lat="46.765180000" lon="-72.555310000">
<ele>0</ele>
<time>2026-09-04T07:30:38Z</time>
</trkpt>
<trkpt lat="46.765020000" lon="-72.555380000">
<ele>0</ele>
<time>2026-09-04T07:30:39Z</time>
</trkpt>
<trkpt lat="46.764860000" lon="-72.555550000">
<ele>0</ele>
<time>2026-09-04T07:30:40Z</time>
</trkpt>
<trkpt lat="46.763400000" lon="-72.557860000">
<ele>0</ele>
<time>2026-09-04T07:30:41Z</time>
</trkpt>
<trkpt lat="46.763400000" lon="-72.557860000">
<ele>0</ele>
<time>2026-09-04T07:30:42Z</time>
</trkpt>
<trkpt lat="46.763070000" lon="-72.558380000">
<ele>0</ele>
<time>2026-09-04T07:30:43Z</time>
</trkpt>
<trkpt lat="46.762690000" lon="-72.557880000">
<ele>0</ele>
<time>2026-09-04T07:30:44Z</time>
</trkpt>
<trkpt lat="46.759940000" lon="-72.553770000">
<ele>0</ele>
<time>2026-09-04T07:30:45Z</time>
</trkpt>
<trkpt lat="46.759940000" lon="-72.553770000">
<ele>0</ele>
<time>2026-09-04T07:30:46Z</time>
</trkpt>
<trkpt lat="46.754010000" lon="-72.544880000">
<ele>0</ele>
<time>2026-09-04T07:30:47Z</time>
</trkpt>
<trkpt lat="46.753300000" lon="-72.545850000">
<ele>0</ele>
<time>2026-09-04T07:30:48Z</time>
</trkpt>
<trkpt lat="46.753300000" lon="-72.545850000">
<ele>0</ele>
<time>2026-09-04T07:30:49Z</time>
</trkpt>
<trkpt lat="46.750210000" lon="-72.550030000">
<ele>0</ele>
<time>2026-09-04T07:30:50Z</time>
</trkpt>
<trkpt lat="46.749080000" lon="-72.551530000">
<ele>0</ele>
<time>2026-09-04T07:30:51Z</time>
</trkpt>
<trkpt lat="46.748660000" lon="-72.552020000">
<ele>0</ele>
<time>2026-09-04T07:30:52Z</time>
</trkpt>
<trkpt lat="46.748170000" lon="-72.552370000">
<ele>0</ele>
<time>2026-09-04T07:30:53Z</time>
</trkpt>
<trkpt lat="46.747680000" lon="-72.552610000">
<ele>0</ele>
<time>2026-09-04T07:30:54Z</time>
</trkpt>
<trkpt lat="46.747310000" lon="-72.552710000">
<ele>0</ele>
<time>2026-09-04T07:30:55Z</time>
</trkpt>
<trkpt lat="46.745570000" lon="-72.552770000">
<ele>0</ele>
<time>2026-09-04T07:30:56Z</time>
</trkpt>
<trkpt lat="46.744960000" lon="-72.552780000">
<ele>0</ele>
<time>2026-09-04T07:30:57Z</time>
</trkpt>
<trkpt lat="46.744560000" lon="-72.552850000">
<ele>0</ele>
<time>2026-09-04T07:30:58Z</time>
</trkpt>
<trkpt lat="46.744560000" lon="-72.552850000">
<ele>0</ele>
<time>2026-09-04T07:30:59Z</time>
</trkpt>
<trkpt lat="46.744460000" lon="-72.552870000">
<ele>0</ele>
<time>2026-09-04T07:31:00Z</time>
</trkpt>
<trkpt lat="46.744120000" lon="-72.553000000">
<ele>0</ele>
<time>2026-09-04T07:31:01Z</time>
</trkpt>
<trkpt lat="46.743880000" lon="-72.553130000">
<ele>0</ele>
<time>2026-09-04T07:31:02Z</time>
</trkpt>
<trkpt lat="46.743440000" lon="-72.553450000">
<ele>0</ele>
<time>2026-09-04T07:31:03Z</time>
</trkpt>
<trkpt lat="46.743200000" lon="-72.553700000">
<ele>0</ele>
<time>2026-09-04T07:31:04Z</time>
</trkpt>
<trkpt lat="46.742880000" lon="-72.554130000">
<ele>0</ele>
<time>2026-09-04T07:31:05Z</time>
</trkpt>
<trkpt lat="46.739650000" lon="-72.558840000">
<ele>0</ele>
<time>2026-09-04T07:31:06Z</time>
</trkpt>
<trkpt lat="46.739650000" lon="-72.558840000">
<ele>0</ele>
<time>2026-09-04T07:31:07Z</time>
</trkpt>
<trkpt lat="46.735760000" lon="-72.564520000">
<ele>0</ele>
<time>2026-09-04T07:31:08Z</time>
</trkpt>
<trkpt lat="46.734780000" lon="-72.565930000">
<ele>0</ele>
<time>2026-09-04T07:31:09Z</time>
</trkpt>
<trkpt lat="46.734290000" lon="-72.566630000">
<ele>0</ele>
<time>2026-09-04T07:31:10Z</time>
</trkpt>
<trkpt lat="46.733760000" lon="-72.567450000">
<ele>0</ele>
<time>2026-09-04T07:31:11Z</time>
</trkpt>
<trkpt lat="46.733160000" lon="-72.568340000">
<ele>0</ele>
<time>2026-09-04T07:31:12Z</time>
</trkpt>
<trkpt lat="46.732190000" lon="-72.569720000">
<ele>0</ele>
<time>2026-09-04T07:31:13Z</time>
</trkpt>
<trkpt lat="46.730650000" lon="-72.572010000">
<ele>0</ele>
<time>2026-09-04T07:31:14Z</time>
</trkpt>
<trkpt lat="46.730000000" lon="-72.572900000">
<ele>0</ele>
<time>2026-09-04T07:31:15Z</time>
</trkpt>
<trkpt lat="46.729690000" lon="-72.573260000">
<ele>0</ele>
<time>2026-09-04T07:31:16Z</time>
</trkpt>
<trkpt lat="46.729500000" lon="-72.573400000">
<ele>0</ele>
<time>2026-09-04T07:31:17Z</time>
</trkpt>
<trkpt lat="46.729390000" lon="-72.573470000">
<ele>0</ele>
<time>2026-09-04T07:31:18Z</time>
</trkpt>
<trkpt lat="46.729390000" lon="-72.573470000">
<ele>0</ele>
<time>2026-09-04T07:31:19Z</time>
</trkpt>
<trkpt lat="46.729180000" lon="-72.573600000">
<ele>0</ele>
<time>2026-09-04T07:31:20Z</time>
</trkpt>
<trkpt lat="46.728930000" lon="-72.573710000">
<ele>0</ele>
<time>2026-09-04T07:31:21Z</time>
</trkpt>
<trkpt lat="46.728690000" lon="-72.573790000">
<ele>0</ele>
<time>2026-09-04T07:31:22Z</time>
</trkpt>
<trkpt lat="46.728540000" lon="-72.573810000">
<ele>0</ele>
<time>2026-09-04T07:31:23Z</time>
</trkpt>
<trkpt lat="46.728140000" lon="-72.573830000">
<ele>0</ele>
<time>2026-09-04T07:31:24Z</time>
</trkpt>
<trkpt lat="46.727770000" lon="-72.573760000">
<ele>0</ele>
<time>2026-09-04T07:31:25Z</time>
</trkpt>
<trkpt lat="46.727370000" lon="-72.573610000">
<ele>0</ele>
<time>2026-09-04T07:31:26Z</time>
</trkpt>
<trkpt lat="46.727090000" lon="-72.573450000">
<ele>0</ele>
<time>2026-09-04T07:31:27Z</time>
</trkpt>
<trkpt lat="46.726930000" lon="-72.573330000">
<ele>0</ele>
<time>2026-09-04T07:31:28Z</time>
</trkpt>
<trkpt lat="46.726660000" lon="-72.573040000">
<ele>0</ele>
<time>2026-09-04T07:31:29Z</time>
</trkpt>
<trkpt lat="46.725690000" lon="-72.571900000">
<ele>0</ele>
<time>2026-09-04T07:31:30Z</time>
</trkpt>
<trkpt lat="46.725540000" lon="-72.571890000">
<ele>0</ele>
<time>2026-09-04T07:31:31Z</time>
</trkpt>
<trkpt lat="46.725460000" lon="-72.571900000">
<ele>0</ele>
<time>2026-09-04T07:31:32Z</time>
</trkpt>
<trkpt lat="46.725320000" lon="-72.571960000">
<ele>0</ele>
<time>2026-09-04T07:31:33Z</time>
</trkpt>
<trkpt lat="46.725250000" lon="-72.571970000">
<ele>0</ele>
<time>2026-09-04T07:31:34Z</time>
</trkpt>
<trkpt lat="46.725050000" lon="-72.572250000">
<ele>0</ele>
<time>2026-09-04T07:31:35Z</time>
</trkpt>
<trkpt lat="46.724990000" lon="-72.572330000">
<ele>0</ele>
<time>2026-09-04T07:31:36Z</time>
</trkpt>
<trkpt lat="46.724990000" lon="-72.572330000">
<ele>0</ele>
<time>2026-09-04T07:31:37Z</time>
</trkpt>
<trkpt lat="46.723670000" lon="-72.574200000">
<ele>0</ele>
<time>2026-09-04T07:31:38Z</time>
</trkpt>
<trkpt lat="46.723330000" lon="-72.574660000">
<ele>0</ele>
<time>2026-09-04T07:31:39Z</time>
</trkpt>
<trkpt lat="46.722840000" lon="-72.575240000">
<ele>0</ele>
<time>2026-09-04T07:31:40Z</time>
</trkpt>
<trkpt lat="46.722300000" lon="-72.575810000">
<ele>0</ele>
<time>2026-09-04T07:31:41Z</time>
</trkpt>
<trkpt lat="46.721740000" lon="-72.576300000">
<ele>0</ele>
<time>2026-09-04T07:31:42Z</time>
</trkpt>
<trkpt lat="46.721360000" lon="-72.576590000">
<ele>0</ele>
<time>2026-09-04T07:31:43Z</time>
</trkpt>
<trkpt lat="46.720550000" lon="-72.577140000">
<ele>0</ele>
<time>2026-09-04T07:31:44Z</time>
</trkpt>
<trkpt lat="46.720300000" lon="-72.577310000">
<ele>0</ele>
<time>2026-09-04T07:31:45Z</time>
</trkpt>
<trkpt lat="46.720300000" lon="-72.577310000">
<ele>0</ele>
<time>2026-09-04T07:31:46Z</time>
</trkpt>
<trkpt lat="46.720090000" lon="-72.577480000">
<ele>0</ele>
<time>2026-09-04T07:31:47Z</time>
</trkpt>
<trkpt lat="46.719900000" lon="-72.577660000">
<ele>0</ele>
<time>2026-09-04T07:31:48Z</time>
</trkpt>
<trkpt lat="46.719560000" lon="-72.578080000">
<ele>0</ele>
<time>2026-09-04T07:31:49Z</time>
</trkpt>
<trkpt lat="46.718910000" lon="-72.579000000">
<ele>0</ele>
<time>2026-09-04T07:31:50Z</time>
</trkpt>
<trkpt lat="46.718090000" lon="-72.580180000">
<ele>0</ele>
<time>2026-09-04T07:31:51Z</time>
</trkpt>
<trkpt lat="46.715980000" lon="-72.583200000">
<ele>0</ele>
<time>2026-09-04T07:31:52Z</time>
</trkpt>
<trkpt lat="46.715700000" lon="-72.583600000">
<ele>0</ele>
<time>2026-09-04T07:31:53Z</time>
</trkpt>
<trkpt lat="46.715180000" lon="-72.583210000">
<ele>0</ele>
<time>2026-09-04T07:31:54Z</time>
</trkpt>
<trkpt lat="46.714470000" lon="-72.582850000">
<ele>0</ele>
<time>2026-09-04T07:31:55Z</time>
</trkpt>
<trkpt lat="46.714470000" lon="-72.582850000">
<ele>0</ele>
<time>2026-09-04T07:31:56Z</time>
</trkpt>
<trkpt lat="46.714000000" lon="-72.582690000">
<ele>0</ele>
<time>2026-09-04T07:31:57Z</time>
</trkpt>
<trkpt lat="46.713600000" lon="-72.582700000">
<ele>0</ele>
<time>2026-09-04T07:31:58Z</time>
</trkpt>
<trkpt lat="46.713300000" lon="-72.582770000">
<ele>0</ele>
<time>2026-09-04T07:31:59Z</time>
</trkpt>
<trkpt lat="46.712970000" lon="-72.583050000">
<ele>0</ele>
<time>2026-09-04T07:32:00Z</time>
</trkpt>
<trkpt lat="46.712340000" lon="-72.583890000">
<ele>0</ele>
<time>2026-09-04T07:32:01Z</time>
</trkpt>
<trkpt lat="46.711240000" lon="-72.585250000">
<ele>0</ele>
<time>2026-09-04T07:32:02Z</time>
</trkpt>
<trkpt lat="46.711100000" lon="-72.585380000">
<ele>0</ele>
<time>2026-09-04T07:32:03Z</time>
</trkpt>
<trkpt lat="46.710820000" lon="-72.585540000">
<ele>0</ele>
<time>2026-09-04T07:32:04Z</time>
</trkpt>
<trkpt lat="46.710550000" lon="-72.585630000">
<ele>0</ele>
<time>2026-09-04T07:32:05Z</time>
</trkpt>
<trkpt lat="46.709250000" lon="-72.585550000">
<ele>0</ele>
<time>2026-09-04T07:32:06Z</time>
</trkpt>
<trkpt lat="46.709250000" lon="-72.585550000">
<ele>0</ele>
<time>2026-09-04T07:32:07Z</time>
</trkpt>
<trkpt lat="46.706240000" lon="-72.585290000">
<ele>0</ele>
<time>2026-09-04T07:32:08Z</time>
</trkpt>
<trkpt lat="46.705900000" lon="-72.585220000">
<ele>0</ele>
<time>2026-09-04T07:32:09Z</time>
</trkpt>
<trkpt lat="46.705690000" lon="-72.585110000">
<ele>0</ele>
<time>2026-09-04T07:32:10Z</time>
</trkpt>
<trkpt lat="46.704200000" lon="-72.583850000">
<ele>0</ele>
<time>2026-09-04T07:32:11Z</time>
</trkpt>
<trkpt lat="46.703740000" lon="-72.583460000">
<ele>0</ele>
<time>2026-09-04T07:32:12Z</time>
</trkpt>
<trkpt lat="46.703740000" lon="-72.583460000">
<ele>0</ele>
<time>2026-09-04T07:32:13Z</time>
</trkpt>
<trkpt lat="46.702670000" lon="-72.582540000">
<ele>0</ele>
<time>2026-09-04T07:32:14Z</time>
</trkpt>
<trkpt lat="46.700120000" lon="-72.579610000">
<ele>0</ele>
<time>2026-09-04T07:32:15Z</time>
</trkpt>
<trkpt lat="46.699990000" lon="-72.579840000">
<ele>0</ele>
<time>2026-09-04T07:32:16Z</time>
</trkpt>
<trkpt lat="46.698780000" lon="-72.581600000">
<ele>0</ele>
<time>2026-09-04T07:32:17Z</time>
</trkpt>
<trkpt lat="46.698780000" lon="-72.581600000">
<ele>0</ele>
<time>2026-09-04T07:32:18Z</time>
</trkpt>
<trkpt lat="46.685870000" lon="-72.600360000">
<ele>0</ele>
<time>2026-09-04T07:32:19Z</time>
</trkpt>
<trkpt lat="46.685100000" lon="-72.600340000">
<ele>0</ele>
<time>2026-09-04T07:32:20Z</time>
</trkpt>
<trkpt lat="46.684410000" lon="-72.600170000">
<ele>0</ele>
<time>2026-09-04T07:32:21Z</time>
</trkpt>
<trkpt lat="46.684410000" lon="-72.600170000">
<ele>0</ele>
<time>2026-09-04T07:32:22Z</time>
</trkpt>
<trkpt lat="46.684020000" lon="-72.600070000">
<ele>0</ele>
<time>2026-09-04T07:32:23Z</time>
</trkpt>
<trkpt lat="46.683670000" lon="-72.600070000">
<ele>0</ele>
<time>2026-09-04T07:32:24Z</time>
</trkpt>
<trkpt lat="46.683330000" lon="-72.600210000">
<ele>0</ele>
<time>2026-09-04T07:32:25Z</time>
</trkpt>
<trkpt lat="46.682830000" lon="-72.600510000">
<ele>0</ele>
<time>2026-09-04T07:32:26Z</time>
</trkpt>
<trkpt lat="46.682370000" lon="-72.600870000">
<ele>0</ele>
<time>2026-09-04T07:32:27Z</time>
</trkpt>
<trkpt lat="46.681330000" lon="-72.602230000">
<ele>0</ele>
<time>2026-09-04T07:32:28Z</time>
</trkpt>
<trkpt lat="46.675020000" lon="-72.611150000">
<ele>0</ele>
<time>2026-09-04T07:32:29Z</time>
</trkpt>
<trkpt lat="46.674520000" lon="-72.611910000">
<ele>0</ele>
<time>2026-09-04T07:32:30Z</time>
</trkpt>
<trkpt lat="46.673750000" lon="-72.613220000">
<ele>0</ele>
<time>2026-09-04T07:32:31Z</time>
</trkpt>
<trkpt lat="46.672900000" lon="-72.612070000">
<ele>0</ele>
<time>2026-09-04T07:32:32Z</time>
</trkpt>
<trkpt lat="46.672900000" lon="-72.612070000">
<ele>0</ele>
<time>2026-09-04T07:32:33Z</time>
</trkpt>
<trkpt lat="46.672580000" lon="-72.611630000">
<ele>0</ele>
<time>2026-09-04T07:32:34Z</time>
</trkpt>
<trkpt lat="46.655640000" lon="-72.586640000">
<ele>0</ele>
<time>2026-09-04T07:32:35Z</time>
</trkpt>
<trkpt lat="46.651690000" lon="-72.581370000">
<ele>0</ele>
<time>2026-09-04T07:32:36Z</time>
</trkpt>
<trkpt lat="46.651690000" lon="-72.581370000">
<ele>0</ele>
<time>2026-09-04T07:32:37Z</time>
</trkpt>
<trkpt lat="46.650990000" lon="-72.580440000">
<ele>0</ele>
<time>2026-09-04T07:32:38Z</time>
</trkpt>
<trkpt lat="46.647130000" lon="-72.585950000">
<ele>0</ele>
<time>2026-09-04T07:32:39Z</time>
</trkpt>
<trkpt lat="46.646570000" lon="-72.586770000">
<ele>0</ele>
<time>2026-09-04T07:32:40Z</time>
</trkpt>
<trkpt lat="46.646570000" lon="-72.586770000">
<ele>0</ele>
<time>2026-09-04T07:32:41Z</time>
</trkpt>
<trkpt lat="46.643940000" lon="-72.590560000">
<ele>0</ele>
<time>2026-09-04T07:32:42Z</time>
</trkpt>
<trkpt lat="46.639290000" lon="-72.597530000">
<ele>0</ele>
<time>2026-09-04T07:32:43Z</time>
</trkpt>
<trkpt lat="46.638630000" lon="-72.598490000">
<ele>0</ele>
<time>2026-09-04T07:32:44Z</time>
</trkpt>
<trkpt lat="46.638780000" lon="-72.598540000">
<ele>0</ele>
<time>2026-09-04T07:32:45Z</time>
</trkpt>
<trkpt lat="46.639190000" lon="-72.598680000">
<ele>0</ele>
<time>2026-09-04T07:32:46Z</time>
</trkpt>
<trkpt lat="46.639400000" lon="-72.598700000">
<ele>0</ele>
<time>2026-09-04T07:32:47Z</time>
</trkpt>
<trkpt lat="46.639860000" lon="-72.598700000">
<ele>0</ele>
<time>2026-09-04T07:32:48Z</time>
</trkpt>
<trkpt lat="46.640400000" lon="-72.598600000">
<ele>0</ele>
<time>2026-09-04T07:32:49Z</time>
</trkpt>
<trkpt lat="46.640580000" lon="-72.598560000">
<ele>0</ele>
<time>2026-09-04T07:32:50Z</time>
</trkpt>
<trkpt lat="46.640580000" lon="-72.598560000">
<ele>0</ele>
<time>2026-09-04T07:32:51Z</time>
</trkpt>
<trkpt lat="46.641100000" lon="-72.598440000">
<ele>0</ele>
<time>2026-09-04T07:32:52Z</time>
</trkpt>
<trkpt lat="46.641330000" lon="-72.598420000">
<ele>0</ele>
<time>2026-09-04T07:32:53Z</time>
</trkpt>
<trkpt lat="46.641420000" lon="-72.598440000">
<ele>0</ele>
<time>2026-09-04T07:32:54Z</time>
</trkpt>
<trkpt lat="46.641500000" lon="-72.598480000">
<ele>0</ele>
<time>2026-09-04T07:32:55Z</time>
</trkpt>
<trkpt lat="46.641620000" lon="-72.598520000">
<ele>0</ele>
<time>2026-09-04T07:32:56Z</time>
</trkpt>
<trkpt lat="46.642430000" lon="-72.598940000">
<ele>0</ele>
<time>2026-09-04T07:32:57Z</time>
</trkpt>
<trkpt lat="46.642630000" lon="-72.599160000">
<ele>0</ele>
<time>2026-09-04T07:32:58Z</time>
</trkpt>
<trkpt lat="46.642820000" lon="-72.599400000">
<ele>0</ele>
<time>2026-09-04T07:32:59Z</time>
</trkpt>
<trkpt lat="46.643760000" lon="-72.601490000">
<ele>0</ele>
<time>2026-09-04T07:33:00Z</time>
</trkpt>
<trkpt lat="46.643910000" lon="-72.601880000">
<ele>0</ele>
<time>2026-09-04T07:33:01Z</time>
</trkpt>
<trkpt lat="46.643950000" lon="-72.602080000">
<ele>0</ele>
<time>2026-09-04T07:33:02Z</time>
</trkpt>
<trkpt lat="46.643950000" lon="-72.602390000">
<ele>0</ele>
<time>2026-09-04T07:33:03Z</time>
</trkpt>
<trkpt lat="46.643890000" lon="-72.602640000">
<ele>0</ele>
<time>2026-09-04T07:33:04Z</time>
</trkpt>
<trkpt lat="46.643040000" lon="-72.604270000">
<ele>0</ele>
<time>2026-09-04T07:33:05Z</time>
</trkpt>
<trkpt lat="46.642000000" lon="-72.606390000">
<ele>0</ele>
<time>2026-09-04T07:33:06Z</time>
</trkpt>
<trkpt lat="46.641820000" lon="-72.606880000">
<ele>0</ele>
<time>2026-09-04T07:33:07Z</time>
</trkpt>
<trkpt lat="46.641650000" lon="-72.607410000">
<ele>0</ele>
<time>2026-09-04T07:33:08Z</time>
</trkpt>
<trkpt lat="46.641630000" lon="-72.607670000">
<ele>0</ele>
<time>2026-09-04T07:33:09Z</time>
</trkpt>
<trkpt lat="46.641640000" lon="-72.607880000">
<ele>0</ele>
<time>2026-09-04T07:33:10Z</time>
</trkpt>
<trkpt lat="46.641660000" lon="-72.608010000">
<ele>0</ele>
<time>2026-09-04T07:33:11Z</time>
</trkpt>
<trkpt lat="46.641750000" lon="-72.608230000">
<ele>0</ele>
<time>2026-09-04T07:33:12Z</time>
</trkpt>
<trkpt lat="46.642180000" lon="-72.609090000">
<ele>0</ele>
<time>2026-09-04T07:33:13Z</time>
</trkpt>
<trkpt lat="46.642560000" lon="-72.609660000">
<ele>0</ele>
<time>2026-09-04T07:33:14Z</time>
</trkpt>
<trkpt lat="46.642660000" lon="-72.609900000">
<ele>0</ele>
<time>2026-09-04T07:33:15Z</time>
</trkpt>
<trkpt lat="46.642750000" lon="-72.610180000">
<ele>0</ele>
<time>2026-09-04T07:33:16Z</time>
</trkpt>
<trkpt lat="46.642830000" lon="-72.610680000">
<ele>0</ele>
<time>2026-09-04T07:33:17Z</time>
</trkpt>
<trkpt lat="46.642820000" lon="-72.610950000">
<ele>0</ele>
<time>2026-09-04T07:33:18Z</time>
</trkpt>
<trkpt lat="46.642770000" lon="-72.611460000">
<ele>0</ele>
<time>2026-09-04T07:33:19Z</time>
</trkpt>
<trkpt lat="46.642680000" lon="-72.611750000">
<ele>0</ele>
<time>2026-09-04T07:33:20Z</time>
</trkpt>
<trkpt lat="46.642460000" lon="-72.612130000">
<ele>0</ele>
<time>2026-09-04T07:33:21Z</time>
</trkpt>
<trkpt lat="46.641650000" lon="-72.613220000">
<ele>0</ele>
<time>2026-09-04T07:33:22Z</time>
</trkpt>
<trkpt lat="46.641160000" lon="-72.613960000">
<ele>0</ele>
<time>2026-09-04T07:33:23Z</time>
</trkpt>
<trkpt lat="46.640470000" lon="-72.614880000">
<ele>0</ele>
<time>2026-09-04T07:33:24Z</time>
</trkpt>
<trkpt lat="46.638930000" lon="-72.617040000">
<ele>0</ele>
<time>2026-09-04T07:33:25Z</time>
</trkpt>
<trkpt lat="46.638930000" lon="-72.617040000">
<ele>0</ele>
<time>2026-09-04T07:33:26Z</time>
</trkpt>
<trkpt lat="46.636910000" lon="-72.619830000">
<ele>0</ele>
<time>2026-09-04T07:33:27Z</time>
</trkpt>
<trkpt lat="46.635590000" lon="-72.621700000">
<ele>0</ele>
<time>2026-09-04T07:33:28Z</time>
</trkpt>
<trkpt lat="46.635010000" lon="-72.622600000">
<ele>0</ele>
<time>2026-09-04T07:33:29Z</time>
</trkpt>
<trkpt lat="46.634350000" lon="-72.623680000">
<ele>0</ele>
<time>2026-09-04T07:33:30Z</time>
</trkpt>
<trkpt lat="46.633920000" lon="-72.624200000">
<ele>0</ele>
<time>2026-09-04T07:33:31Z</time>
</trkpt>
<trkpt lat="46.633360000" lon="-72.624780000">
<ele>0</ele>
<time>2026-09-04T07:33:32Z</time>
</trkpt>
<trkpt lat="46.632840000" lon="-72.625540000">
<ele>0</ele>
<time>2026-09-04T07:33:33Z</time>
</trkpt>
<trkpt lat="46.632330000" lon="-72.626220000">
<ele>0</ele>
<time>2026-09-04T07:33:34Z</time>
</trkpt>
<trkpt lat="46.629580000" lon="-72.630030000">
<ele>0</ele>
<time>2026-09-04T07:33:35Z</time>
</trkpt>
<trkpt lat="46.628950000" lon="-72.630890000">
<ele>0</ele>
<time>2026-09-04T07:33:36Z</time>
</trkpt>
<trkpt lat="46.628950000" lon="-72.630890000">
<ele>0</ele>
<time>2026-09-04T07:33:37Z</time>
</trkpt>
<trkpt lat="46.625920000" lon="-72.635090000">
<ele>0</ele>
<time>2026-09-04T07:33:38Z</time>
</trkpt>
<trkpt lat="46.625200000" lon="-72.636140000">
<ele>0</ele>
<time>2026-09-04T07:33:39Z</time>
</trkpt>
<trkpt lat="46.623500000" lon="-72.638480000">
<ele>0</ele>
<time>2026-09-04T07:33:40Z</time>
</trkpt>
<trkpt lat="46.620500000" lon="-72.642590000">
<ele>0</ele>
<time>2026-09-04T07:33:41Z</time>
</trkpt>
<trkpt lat="46.620800000" lon="-72.643050000">
<ele>0</ele>
<time>2026-09-04T07:33:42Z</time>
</trkpt>
<trkpt lat="46.620800000" lon="-72.643050000">
<ele>0</ele>
<time>2026-09-04T07:33:43Z</time>
</trkpt>
<trkpt lat="46.624660000" lon="-72.648970000">
<ele>0</ele>
<time>2026-09-04T07:33:44Z</time>
</trkpt>
<trkpt lat="46.625060000" lon="-72.649510000">
<ele>0</ele>
<time>2026-09-04T07:33:45Z</time>
</trkpt>
<trkpt lat="46.626170000" lon="-72.651290000">
<ele>0</ele>
<time>2026-09-04T07:33:46Z</time>
</trkpt>
</trkseg>
</trk>
</gpx>
